Observation data for Weinert on 05/15/2018      Previous  Date  Next       Current Mesonet Observations  Soil Data  Daily Summary Page  Observations in Plain Language
KWE1 150500Z 12008KT 25/19 A2987 RMK A01 T02480185  RH  068%=      5-min Rain = 0
KWE1 150501Z 13008KT 25/19 A2987 RMK A01 T02470185  RH  068%=      5-min Rain = 0
KWE1 150502Z 13007KT 25/19 A2987 RMK A01 T02470185  RH  069%=      5-min Rain = 0
KWE1 150503Z 13007KT 25/19 A2987 RMK A01 T02460185  RH  069%=      5-min Rain = 0
KWE1 150504Z 13008KT 25/19 A2987 RMK A01 T02460186  RH  069%=      5-min Rain = 0
KWE1 150505Z 13008KT 25/19 A2987 RMK A01 T02450187  RH  070%=      5-min Rain = 0
KWE1 150506Z 13008KT 25/19 A2987 RMK A01 T02450188  RH  070%=      5-min Rain = 0
KWE1 150507Z 15007KT 25/19 A2987 RMK A01 T02450187  RH  070%=      5-min Rain = 0
KWE1 150508Z 15007KT 25/19 A2987 RMK A01 T02450186  RH  070%=      5-min Rain = 0
KWE1 150509Z 14008KT 24/19 A2987 RMK A01 T02440185  RH  070%=      5-min Rain = 0
KWE1 150510Z 15007KT 24/19 A2987 RMK A01 T02430185  RH  070%=      5-min Rain = 0
KWE1 150511Z 14008KT 24/18 A2987 RMK A01 T02420184  RH  070%=      5-min Rain = 0
KWE1 150512Z 14007KT 24/19 A2987 RMK A01 T02410186  RH  071%=      5-min Rain = 0
KWE1 150513Z 14007KT 24/19 A2987 RMK A01 T02400186  RH  072%=      5-min Rain = 0
KWE1 150514Z 13007KT 24/19 A2987 RMK A01 T02390186  RH  072%=      5-min Rain = 0
KWE1 150515Z 14007KT 24/19 A2987 RMK A01 T02390187  RH  073%=      5-min Rain = 0
KWE1 150516Z 14006KT 24/19 A2987 RMK A01 T02380187  RH  073%=      5-min Rain = 0
KWE1 150517Z 13007KT 24/19 A2987 RMK A01 T02380187  RH  073%=      5-min Rain = 0
KWE1 150518Z 14007KT 24/19 A2987 RMK A01 T02370187  RH  073%=      5-min Rain = 0
KWE1 150519Z 15009KT 24/19 A2987 RMK A01 T02370187  RH  074%=      5-min Rain = 0
KWE1 150520Z 15008KT 24/19 A2987 RMK A01 T02370188  RH  074%=      5-min Rain = 0
KWE1 150521Z 14007KT 24/19 A2987 RMK A01 T02370188  RH  074%=      5-min Rain = 0
KWE1 150522Z 15007KT 24/19 A2987 RMK A01 T02370188  RH  074%=      5-min Rain = 0
KWE1 150523Z 15008KT 24/19 A2987 RMK A01 T02370188  RH  074%=      5-min Rain = 0
KWE1 150524Z 15008KT 24/19 A2987 RMK A01 T02370188  RH  074%=      5-min Rain = 0
KWE1 150525Z 15008KT 24/19 A2987 RMK A01 T02360188  RH  074%=      5-min Rain = 0
KWE1 150526Z 14008KT 24/19 A2987 RMK A01 T02360188  RH  074%=      5-min Rain = 0
KWE1 150527Z 14009KT 24/19 A2987 RMK A01 T02360189  RH  075%=      5-min Rain = 0
KWE1 150528Z 14009KT 24/19 A2987 RMK A01 T02360188  RH  075%=      5-min Rain = 0
KWE1 150529Z 14009KT 24/19 A2987 RMK A01 T02360188  RH  075%=      5-min Rain = 0
KWE1 150530Z 14009KT 24/19 A2987 RMK A01 T02360188  RH  074%=      5-min Rain = 0
KWE1 150531Z 14009KT 24/19 A2987 RMK A01 T02360189  RH  075%=      5-min Rain = 0
KWE1 150532Z 15009KT 24/19 A2987 RMK A01 T02360189  RH  075%=      5-min Rain = 0
KWE1 150533Z 15009KT 24/19 A2987 RMK A01 T02360189  RH  075%=      5-min Rain = 0
KWE1 150534Z 15008KT 24/19 A2987 RMK A01 T02360189  RH  075%=      5-min Rain = 0
KWE1 150535Z 14009KT 24/19 A2987 RMK A01 T02350190  RH  075%=      5-min Rain = 0
KWE1 150536Z 15009KT 24/19 A2988 RMK A01 T02360190  RH  076%=      5-min Rain = 0
KWE1 150537Z 15009KT 24/19 A2988 RMK A01 T02350190  RH  076%=      5-min Rain = 0
KWE1 150538Z 13008KT 24/19 A2988 RMK A01 T02350191  RH  076%=      5-min Rain = 0
KWE1 150539Z 13008KT 24/19 A2988 RMK A01 T02350191  RH  076%=      5-min Rain = 0
KWE1 150540Z 14007KT 24/19 A2988 RMK A01 T02350191  RH  076%=      5-min Rain = 0
KWE1 150541Z 14007KT 24/19 A2988 RMK A01 T02350190  RH  076%=      5-min Rain = 0
KWE1 150542Z 14007KT 24/19 A2988 RMK A01 T02350190  RH  076%=      5-min Rain = 0
KWE1 150543Z 14007KT 24/19 A2988 RMK A01 T02350191  RH  076%=      5-min Rain = 0
KWE1 150544Z 14007KT 23/19 A2988 RMK A01 T02340190  RH  076%=      5-min Rain = 0
KWE1 150545Z 14007KT 24/19 A2988 RMK A01 T02350191  RH  076%=      5-min Rain = 0
KWE1 150546Z 14008KT 24/19 A2988 RMK A01 T02350191  RH  076%=      5-min Rain = 0
KWE1 150547Z 14007KT 23/19 A2988 RMK A01 T02340190  RH  076%=      5-min Rain = 0
KWE1 150548Z 14008KT 23/19 A2988 RMK A01 T02340190  RH  076%=      5-min Rain = 0
KWE1 150549Z 14007KT 23/19 A2988 RMK A01 T02340190  RH  076%=      5-min Rain = 0
KWE1 150550Z 13007KT 23/19 A2988 RMK A01 T02340190  RH  076%=      5-min Rain = 0
KWE1 150551Z 13007KT 23/19 A2988 RMK A01 T02340190  RH  076%=      5-min Rain = 0
KWE1 150552Z 13006KT 23/19 A2988 RMK A01 T02340190  RH  076%=      5-min Rain = 0
KWE1 150553Z 13005KT 23/19 A2988 RMK A01 T02340189  RH  076%=      5-min Rain = 0
KWE1 150554Z 13006KT 23/19 A2988 RMK A01 T02340189  RH  076%=      5-min Rain = 0
KWE1 150555Z 13006KT 23/19 A2988 RMK A01 T02330189  RH  076%=      5-min Rain = 0
KWE1 150556Z 12006KT 23/19 A2988 RMK A01 T02330190  RH  077%=      5-min Rain = 0
KWE1 150557Z 12005KT 23/19 A2988 RMK A01 T02330190  RH  077%=      5-min Rain = 0
KWE1 150558Z 13005KT 23/19 A2989 RMK A01 T02330190  RH  077%=      5-min Rain = 0
KWE1 150559Z 12004KT 23/19 A2989 RMK A01 T02330190  RH  077%=      5-min Rain = 0
KWE1 150600Z 13004KT 23/19 A2989 RMK A01 T02330190  RH  076%=      5-min Rain = 0
KWE1 150601Z 12005KT 23/19 A2989 RMK A01 T02330190  RH  076%=      5-min Rain = 0
KWE1 150602Z 12005KT 23/19 A2989 RMK A01 T02330190  RH  077%=      5-min Rain = 0
KWE1 150603Z 12004KT 23/19 A2989 RMK A01 T02330190  RH  077%=      5-min Rain = 0
KWE1 150604Z 12004KT 23/19 A2989 RMK A01 T02320190  RH  077%=      5-min Rain = 0
KWE1 150605Z 12005KT 23/19 A2989 RMK A01 T02320190  RH  077%=      5-min Rain = 0
KWE1 150606Z 12006KT 23/19 A2989 RMK A01 T02310189  RH  077%=      5-min Rain = 0
KWE1 150607Z 13005KT 23/19 A299 RMK A01 T02310189  RH  077%=      5-min Rain = 0
KWE1 150608Z 13005KT 23/19 A299 RMK A01 T02310189  RH  077%=      5-min Rain = 0
KWE1 150609Z 13006KT 23/19 A299 RMK A01 T02310189  RH  077%=      5-min Rain = 0
KWE1 150610Z 14005KT 23/19 A299 RMK A01 T02320189  RH  076%=      5-min Rain = 0
KWE1 150611Z 14006KT 23/19 A299 RMK A01 T02330188  RH  076%=      5-min Rain = 0
KWE1 150612Z 15006KT 23/19 A299 RMK A01 T02340188  RH  076%=      5-min Rain = 0
KWE1 150613Z 15006KT 23/19 A299 RMK A01 T02340188  RH  075%=      5-min Rain = 0
KWE1 150614Z 15006KT 24/19 A299 RMK A01 T02350188  RH  075%=      5-min Rain = 0
KWE1 150615Z 15006KT 24/19 A299 RMK A01 T02350187  RH  074%=      5-min Rain = 0
KWE1 150616Z 16005KT 24/19 A299 RMK A01 T02350187  RH  074%=      5-min Rain = 0
KWE1 150617Z 16006KT 24/19 A299 RMK A01 T02350186  RH  074%=      5-min Rain = 0
KWE1 150618Z 16005KT 24/19 A299 RMK A01 T02350186  RH  074%=      5-min Rain = 0
KWE1 150619Z 16005KT 23/19 A299 RMK A01 T02340186  RH  074%=      5-min Rain = 0
KWE1 150620Z 16005KT 24/19 A299 RMK A01 T02350186  RH  074%=      5-min Rain = 0
KWE1 150621Z 16006KT 24/19 A299 RMK A01 T02350186  RH  074%=      5-min Rain = 0
KWE1 150622Z 17006KT 23/19 A299 RMK A01 T02340186  RH  074%=      5-min Rain = 0
KWE1 150623Z 17006KT 23/19 A299 RMK A01 T02340186  RH  074%=      5-min Rain = 0
KWE1 150624Z 17007KT 24/19 A299 RMK A01 T02350186  RH  074%=      5-min Rain = 0
KWE1 150625Z 17005KT 24/19 A299 RMK A01 T02350186  RH  074%=      5-min Rain = 0
KWE1 150626Z 16005KT 24/19 A299 RMK A01 T02350185  RH  074%=      5-min Rain = 0
KWE1 150627Z 16006KT 24/19 A299 RMK A01 T02350185  RH  073%=      5-min Rain = 0
KWE1 150628Z 16006KT 24/19 A299 RMK A01 T02350185  RH  073%=      5-min Rain = 0
KWE1 150629Z 16006KT 24/18 A299 RMK A01 T02350184  RH  073%=      5-min Rain = 0
KWE1 150630Z 16006KT 24/18 A299 RMK A01 T02350184  RH  073%=      5-min Rain = 0
KWE1 150631Z 16006KT 24/18 A299 RMK A01 T02350184  RH  073%=      5-min Rain = 0
KWE1 150632Z 16006KT 24/18 A299 RMK A01 T02350183  RH  073%=      5-min Rain = 0
KWE1 150633Z 16005KT 24/18 A299 RMK A01 T02350183  RH  073%=      5-min Rain = 0
KWE1 150634Z 16006KT 24/18 A299 RMK A01 T02350183  RH  073%=      5-min Rain = 0
KWE1 150635Z 17007KT 23/18 A299 RMK A01 T02340183  RH  073%=      5-min Rain = 0
KWE1 150636Z 17006KT 23/18 A299 RMK A01 T02340183  RH  073%=      5-min Rain = 0
KWE1 150637Z 17006KT 23/18 A299 RMK A01 T02340183  RH  073%=      5-min Rain = 0
KWE1 150638Z 18007KT 23/18 A299 RMK A01 T02340182  RH  073%=      5-min Rain = 0
KWE1 150639Z 17006KT 23/18 A2989 RMK A01 T02340183  RH  073%=      5-min Rain = 0
KWE1 150640Z 17007KT 23/18 A2989 RMK A01 T02340182  RH  073%=      5-min Rain = 0
KWE1 150641Z 18006KT 23/18 A2989 RMK A01 T02340182  RH  073%=      5-min Rain = 0
KWE1 150642Z 18006KT 23/18 A2989 RMK A01 T02330181  RH  073%=      5-min Rain = 0
KWE1 150643Z 18006KT 23/18 A299 RMK A01 T02320181  RH  073%=      5-min Rain = 0
KWE1 150644Z 18007KT 23/18 A299 RMK A01 T02310181  RH  073%=      5-min Rain = 0
KWE1 150645Z 18006KT 23/18 A299 RMK A01 T02310180  RH  073%=      5-min Rain = 0
KWE1 150646Z 17006KT 23/18 A299 RMK A01 T02310180  RH  073%=      5-min Rain = 0
KWE1 150647Z 18006KT 23/18 A299 RMK A01 T02310180  RH  073%=      5-min Rain = 0
KWE1 150648Z 18006KT 23/18 A299 RMK A01 T02310179  RH  073%=      5-min Rain = 0
KWE1 150649Z 18005KT 23/18 A299 RMK A01 T02300179  RH  073%=      5-min Rain = 0
KWE1 150650Z 18005KT 23/18 A299 RMK A01 T02300179  RH  073%=      5-min Rain = 0
KWE1 150651Z 19005KT 23/18 A299 RMK A01 T02300179  RH  073%=      5-min Rain = 0
KWE1 150652Z 18006KT 23/18 A299 RMK A01 T02300179  RH  073%=      5-min Rain = 0
KWE1 150653Z 18006KT 23/18 A299 RMK A01 T02300178  RH  073%=      5-min Rain = 0
KWE1 150654Z 19006KT 23/18 A299 RMK A01 T02290178  RH  073%=      5-min Rain = 0
KWE1 150655Z 19006KT 23/18 A299 RMK A01 T02290177  RH  073%=      5-min Rain = 0
KWE1 150656Z 19006KT 23/18 A299 RMK A01 T02290177  RH  073%=      5-min Rain = 0
KWE1 150657Z 19006KT 23/18 A299 RMK A01 T02280176  RH  072%=      5-min Rain = 0
KWE1 150658Z 19006KT 23/18 A299 RMK A01 T02280177  RH  073%=      5-min Rain = 0
KWE1 150659Z 19006KT 23/18 A299 RMK A01 T02280177  RH  073%=      5-min Rain = 0
KWE1 150700Z 19006KT 23/18 A299 RMK A01 T02280176  RH  072%=      5-min Rain = 0
KWE1 150701Z 19006KT 23/18 A299 RMK A01 T02280176  RH  072%=      5-min Rain = 0
KWE1 150702Z 19006KT 23/18 A299 RMK A01 T02290176  RH  072%=      5-min Rain = 0
KWE1 150703Z 19006KT 23/18 A299 RMK A01 T02290176  RH  072%=      5-min Rain = 0
KWE1 150704Z 20006KT 23/18 A299 RMK A01 T02290176  RH  072%=      5-min Rain = 0
KWE1 150705Z 20006KT 23/18 A299 RMK A01 T02300177  RH  072%=      5-min Rain = 0
KWE1 150706Z 21006KT 23/18 A299 RMK A01 T02300177  RH  072%=      5-min Rain = 0
KWE1 150707Z 21005KT 23/18 A299 RMK A01 T02300176  RH  072%=      5-min Rain = 0
KWE1 150708Z 21005KT 23/18 A299 RMK A01 T02290176  RH  072%=      5-min Rain = 0
KWE1 150709Z 21005KT 23/18 A299 RMK A01 T02280176  RH  073%=      5-min Rain = 0
KWE1 150710Z 22004KT 23/18 A299 RMK A01 T02270176  RH  073%=      5-min Rain = 0
KWE1 150711Z 21005KT 23/18 A299 RMK A01 T02260176  RH  074%=      5-min Rain = 0
KWE1 150712Z 22005KT 23/18 A299 RMK A01 T02250176  RH  074%=      5-min Rain = 0
KWE1 150713Z 22005KT 23/18 A299 RMK A01 T02250176  RH  074%=      5-min Rain = 0
KWE1 150714Z 22005KT 22/18 A299 RMK A01 T02240175  RH  074%=      5-min Rain = 0
KWE1 150715Z 22005KT 22/18 A299 RMK A01 T02230176  RH  075%=      5-min Rain = 0
KWE1 150716Z 22005KT 22/18 A299 RMK A01 T02230176  RH  075%=      5-min Rain = 0
KWE1 150717Z 22005KT 22/18 A299 RMK A01 T02230175  RH  075%=      5-min Rain = 0
KWE1 150718Z 23005KT 22/18 A299 RMK A01 T02220175  RH  075%=      5-min Rain = 0
KWE1 150719Z 23005KT 22/18 A299 RMK A01 T02220175  RH  075%=      5-min Rain = 0
KWE1 150720Z 24004KT 22/18 A299 RMK A01 T02210175  RH  075%=      5-min Rain = 0
KWE1 150721Z 25004KT 22/17 A299 RMK A01 T02200174  RH  075%=      5-min Rain = 0
KWE1 150722Z 26004KT 22/18 A299 RMK A01 T02190175  RH  076%=      5-min Rain = 0
KWE1 150723Z 27003KT 22/18 A299 RMK A01 T02190175  RH  076%=      5-min Rain = 0
KWE1 150724Z 28004KT 22/17 A299 RMK A01 T02170174  RH  076%=      5-min Rain = 0
KWE1 150725Z 28004KT 22/17 A299 RMK A01 T02170174  RH  077%=      5-min Rain = 0
KWE1 150726Z 28004KT 22/17 A299 RMK A01 T02150173  RH  077%=      5-min Rain = 0
KWE1 150727Z 27004KT 21/17 A299 RMK A01 T02130172  RH  077%=      5-min Rain = 0
KWE1 150728Z 27004KT 21/17 A299 RMK A01 T02120172  RH  078%=      5-min Rain = 0
KWE1 150729Z 27004KT 21/17 A299 RMK A01 T02110172  RH  078%=      5-min Rain = 0
KWE1 150730Z 27004KT 21/17 A299 RMK A01 T02110173  RH  079%=      5-min Rain = 0
KWE1 150731Z 27004KT 21/17 A299 RMK A01 T02100172  RH  079%=      5-min Rain = 0
KWE1 150732Z 27004KT 21/17 A299 RMK A01 T02100172  RH  079%=      5-min Rain = 0
KWE1 150733Z 27004KT 21/17 A299 RMK A01 T02100172  RH  079%=      5-min Rain = 0
KWE1 150734Z 28005KT 21/17 A299 RMK A01 T02090171  RH  079%=      5-min Rain = 0
KWE1 150735Z 28005KT 21/17 A299 RMK A01 T02080171  RH  079%=      5-min Rain = 0
KWE1 150736Z 27005KT 21/17 A299 RMK A01 T02090172  RH  080%=      5-min Rain = 0
KWE1 150737Z 27005KT 21/17 A299 RMK A01 T02090172  RH  080%=      5-min Rain = 0
KWE1 150738Z 28005KT 21/17 A299 RMK A01 T02090173  RH  080%=      5-min Rain = 0
KWE1 150739Z 27005KT 21/17 A299 RMK A01 T02090173  RH  080%=      5-min Rain = 0
KWE1 150740Z 27005KT 21/17 A299 RMK A01 T02090173  RH  080%=      5-min Rain = 0
KWE1 150741Z 28005KT 21/17 A299 RMK A01 T02100174  RH  080%=      5-min Rain = 0
KWE1 150742Z 28004KT 21/17 A299 RMK A01 T02100173  RH  080%=      5-min Rain = 0
KWE1 150743Z 27004KT 21/17 A299 RMK A01 T02100173  RH  079%=      5-min Rain = 0
KWE1 150744Z 27004KT 21/17 A299 RMK A01 T02100173  RH  079%=      5-min Rain = 0
KWE1 150745Z 28004KT 21/17 A299 RMK A01 T02100172  RH  079%=      5-min Rain = 0
KWE1 150746Z 28004KT 21/17 A299 RMK A01 T02100172  RH  079%=      5-min Rain = 0
KWE1 150747Z 28005KT 21/17 A299 RMK A01 T02090172  RH  079%=      5-min Rain = 0
KWE1 150748Z 28005KT 21/17 A299 RMK A01 T02090171  RH  079%=      5-min Rain = 0
KWE1 150749Z 28004KT 21/17 A299 RMK A01 T02080170  RH  079%=      5-min Rain = 0
KWE1 150750Z 29004KT 21/17 A299 RMK A01 T02070170  RH  079%=      5-min Rain = 0
KWE1 150751Z 29004KT 21/17 A299 RMK A01 T02070170  RH  080%=      5-min Rain = 0
KWE1 150752Z 29004KT 21/17 A299 RMK A01 T02060170  RH  080%=      5-min Rain = 0
KWE1 150753Z 30005KT 21/17 A299 RMK A01 T02060169  RH  080%=      5-min Rain = 0
KWE1 150754Z 30005KT 21/17 A299 RMK A01 T02060169  RH  079%=      5-min Rain = 0
KWE1 150755Z 30005KT 21/17 A299 RMK A01 T02050169  RH  079%=      5-min Rain = 0
KWE1 150756Z 29005KT 21/17 A299 RMK A01 T02050168  RH  079%=      5-min Rain = 0
KWE1 150757Z 29005KT 21/17 A299 RMK A01 T02050168  RH  079%=      5-min Rain = 0
KWE1 150758Z 29005KT 20/17 A299 RMK A01 T02040168  RH  079%=      5-min Rain = 0
KWE1 150759Z 27004KT 21/17 A299 RMK A01 T02050168  RH  079%=      5-min Rain = 0
KWE1 150800Z 26004KT 20/17 A299 RMK A01 T02040167  RH  079%=      5-min Rain = 0
KWE1 150801Z 25004KT 20/17 A2989 RMK A01 T02040167  RH  079%=      5-min Rain = 0
KWE1 150802Z 25004KT 21/17 A2989 RMK A01 T02050167  RH  078%=      5-min Rain = 0
KWE1 150803Z 24004KT 21/17 A2989 RMK A01 T02060166  RH  078%=      5-min Rain = 0
KWE1 150804Z 23005KT 21/17 A2989 RMK A01 T02060165  RH  077%=      5-min Rain = 0
KWE1 150805Z 23005KT 21/16 A2989 RMK A01 T02070164  RH  076%=      5-min Rain = 0
KWE1 150806Z 23005KT 21/16 A2989 RMK A01 T02070163  RH  076%=      5-min Rain = 0
KWE1 150807Z 23005KT 21/16 A2989 RMK A01 T02070162  RH  076%=      5-min Rain = 0
KWE1 150808Z 23005KT 21/16 A2989 RMK A01 T02070162  RH  075%=      5-min Rain = 0
KWE1 150809Z 24005KT 21/16 A2989 RMK A01 T02060162  RH  075%=      5-min Rain = 0
KWE1 150810Z 25005KT 21/16 A2989 RMK A01 T02060161  RH  075%=      5-min Rain = 0
KWE1 150811Z 25006KT 21/16 A2989 RMK A01 T02060161  RH  075%=      5-min Rain = 0
KWE1 150812Z 26006KT 21/16 A2989 RMK A01 T02070160  RH  074%=      5-min Rain = 0
KWE1 150813Z 26005KT 21/16 A2989 RMK A01 T02080160  RH  074%=      5-min Rain = 0
KWE1 150814Z 26005KT 21/16 A2989 RMK A01 T02080159  RH  073%=      5-min Rain = 0
KWE1 150815Z 26004KT 21/16 A2989 RMK A01 T02080159  RH  073%=      5-min Rain = 0
KWE1 150816Z 26004KT 21/16 A2989 RMK A01 T02090158  RH  073%=      5-min Rain = 0
KWE1 150817Z 26004KT 21/16 A2989 RMK A01 T02080158  RH  073%=      5-min Rain = 0
KWE1 150818Z 26004KT 21/16 A2989 RMK A01 T02080158  RH  073%=      5-min Rain = 0
KWE1 150819Z 26004KT 21/16 A2989 RMK A01 T02080158  RH  073%=      5-min Rain = 0
KWE1 150820Z 25004KT 21/16 A2989 RMK A01 T02090158  RH  073%=      5-min Rain = 0
KWE1 150821Z 25004KT 21/16 A2989 RMK A01 T02090158  RH  073%=      5-min Rain = 0
KWE1 150822Z 25003KT 21/16 A2989 RMK A01 T02080157  RH  072%=      5-min Rain = 0
KWE1 150823Z 26003KT 21/16 A2989 RMK A01 T02080157  RH  072%=      5-min Rain = 0
KWE1 150824Z 26003KT 21/16 A2989 RMK A01 T02090157  RH  072%=      5-min Rain = 0
KWE1 150825Z 26003KT 21/16 A2989 RMK A01 T02080156  RH  072%=      5-min Rain = 0
KWE1 150826Z 25003KT 21/16 A2989 RMK A01 T02080156  RH  072%=      5-min Rain = 0
KWE1 150827Z 25003KT 21/16 A2989 RMK A01 T02080156  RH  072%=      5-min Rain = 0
KWE1 150828Z 25003KT 21/16 A2989 RMK A01 T02070156  RH  073%=      5-min Rain = 0
KWE1 150829Z 26003KT 21/16 A2989 RMK A01 T02070156  RH  073%=      5-min Rain = 0
KWE1 150830Z 25003KT 21/16 A2989 RMK A01 T02060156  RH  073%=      5-min Rain = 0
KWE1 150831Z 26003KT 21/16 A2989 RMK A01 T02060156  RH  073%=      5-min Rain = 0
KWE1 150832Z 25002KT 21/16 A2989 RMK A01 T02060156  RH  073%=      5-min Rain = 0
KWE1 150833Z 22003KT 21/16 A2989 RMK A01 T02060155  RH  073%=      5-min Rain = 0
KWE1 150834Z 20004KT 21/15 A2988 RMK A01 T02050154  RH  072%=      5-min Rain = 0
KWE1 150835Z 21005KT 20/15 A2988 RMK A01 T02040152  RH  072%=      5-min Rain = 0
KWE1 150836Z 20005KT 20/15 A2988 RMK A01 T02020150  RH  072%=      5-min Rain = 0
KWE1 150837Z 20005KT 20/15 A2988 RMK A01 T02000149  RH  073%=      5-min Rain = 0
KWE1 150838Z 21005KT 20/15 A2988 RMK A01 T01980149  RH  073%=      5-min Rain = 0
KWE1 150839Z 20005KT 20/15 A2988 RMK A01 T01970149  RH  074%=      5-min Rain = 0
KWE1 150840Z 20005KT 20/15 A2988 RMK A01 T01960149  RH  074%=      5-min Rain = 0
KWE1 150841Z 20005KT 20/15 A2988 RMK A01 T01960149  RH  074%=      5-min Rain = 0
KWE1 150842Z 20005KT 20/15 A2988 RMK A01 T01960149  RH  074%=      5-min Rain = 0
KWE1 150843Z 20005KT 20/15 A2988 RMK A01 T01960148  RH  074%=      5-min Rain = 0
KWE1 150844Z 20005KT 20/15 A2988 RMK A01 T01960148  RH  074%=      5-min Rain = 0
KWE1 150845Z 20005KT 20/15 A2988 RMK A01 T01970150  RH  074%=      5-min Rain = 0
KWE1 150846Z 20005KT 20/15 A2988 RMK A01 T01980150  RH  074%=      5-min Rain = 0
KWE1 150847Z 19006KT 20/15 A2988 RMK A01 T01990149  RH  073%=      5-min Rain = 0
KWE1 150848Z 20006KT 20/15 A2988 RMK A01 T01990149  RH  073%=      5-min Rain = 0
KWE1 150849Z 20006KT 20/15 A2988 RMK A01 T02000149  RH  072%=      5-min Rain = 0
KWE1 150850Z 19006KT 20/15 A2988 RMK A01 T02000148  RH  072%=      5-min Rain = 0
KWE1 150851Z 19006KT 20/15 A2988 RMK A01 T02000148  RH  072%=      5-min Rain = 0
KWE1 150852Z 19006KT 20/15 A2988 RMK A01 T02000148  RH  072%=      5-min Rain = 0
KWE1 150853Z 19007KT 20/15 A2988 RMK A01 T01990148  RH  072%=      5-min Rain = 0
KWE1 150854Z 19007KT 20/15 A2988 RMK A01 T01990148  RH  072%=      5-min Rain = 0
KWE1 150855Z 19007KT 20/15 A2988 RMK A01 T01990148  RH  072%=      5-min Rain = 0
KWE1 150856Z 19007KT 20/15 A2988 RMK A01 T01990149  RH  073%=      5-min Rain = 0
KWE1 150857Z 18007KT 20/15 A2988 RMK A01 T01990148  RH  073%=      5-min Rain = 0
KWE1 150858Z 18006KT 20/15 A2988 RMK A01 T01990149  RH  073%=      5-min Rain = 0
KWE1 150859Z 18006KT 20/15 A2988 RMK A01 T02000149  RH  072%=      5-min Rain = 0
KWE1 150900Z 18006KT 20/15 A2988 RMK A01 T02000149  RH  072%=      5-min Rain = 0
KWE1 150901Z 18006KT 20/15 A2988 RMK A01 T01990148  RH  072%=      5-min Rain = 0
KWE1 150902Z 18003KT 20/15 A2988 RMK A01 T02000148  RH  072%=      5-min Rain = 0
KWE1 150903Z 18004KT 20/15 A2988 RMK A01 T01990147  RH  072%=      5-min Rain = 0
KWE1 150904Z 18004KT 20/15 A2988 RMK A01 T01980146  RH  072%=      5-min Rain = 0
KWE1 150905Z 18004KT 20/15 A2988 RMK A01 T01970146  RH  072%=      5-min Rain = 0
KWE1 150906Z 19004KT 20/15 A2988 RMK A01 T01960145  RH  072%=      5-min Rain = 0
KWE1 150907Z 19004KT 20/15 A2988 RMK A01 T01960145  RH  073%=      5-min Rain = 0
KWE1 150908Z 19004KT 20/15 A2988 RMK A01 T01950145  RH  073%=      5-min Rain = 0
KWE1 150909Z 19004KT 20/15 A2988 RMK A01 T01950145  RH  073%=      5-min Rain = 0
KWE1 150910Z 19005KT 20/15 A2988 RMK A01 T01950145  RH  073%=      5-min Rain = 0
KWE1 150911Z 19005KT 19/15 A2988 RMK A01 T01940145  RH  073%=      5-min Rain = 0
KWE1 150912Z 18005KT 19/15 A2988 RMK A01 T01940145  RH  073%=      5-min Rain = 0
KWE1 150913Z 18004KT 19/15 A2988 RMK A01 T01940145  RH  073%=      5-min Rain = 0
KWE1 150914Z 18003KT 19/14 A2988 RMK A01 T01940144  RH  073%=      5-min Rain = 0
KWE1 150915Z 20003KT 19/14 A2989 RMK A01 T01930143  RH  073%=      5-min Rain = 0
KWE1 150916Z 22002KT 19/14 A2989 RMK A01 T01930143  RH  073%=      5-min Rain = 0
KWE1 150917Z 24002KT 19/15 A2989 RMK A01 T01920145  RH  074%=      5-min Rain = 0
KWE1 150918Z 23003KT 19/15 A2989 RMK A01 T01930146  RH  074%=      5-min Rain = 0
KWE1 150919Z 24003KT 19/15 A2989 RMK A01 T01930147  RH  075%=      5-min Rain = 0
KWE1 150920Z 24003KT 19/15 A2989 RMK A01 T01930147  RH  075%=      5-min Rain = 0
KWE1 150921Z 24003KT 19/15 A2989 RMK A01 T01930148  RH  075%=      5-min Rain = 0
KWE1 150922Z 25003KT 19/15 A2989 RMK A01 T01930148  RH  075%=      5-min Rain = 0
KWE1 150923Z 25003KT 19/15 A2989 RMK A01 T01930149  RH  075%=      5-min Rain = 0
KWE1 150924Z 25003KT 19/15 A2989 RMK A01 T01920149  RH  076%=      5-min Rain = 0
KWE1 150925Z 26003KT 19/15 A2989 RMK A01 T01920149  RH  076%=      5-min Rain = 0
KWE1 150926Z 25003KT 19/15 A2989 RMK A01 T01920150  RH  077%=      5-min Rain = 0
KWE1 150927Z 24003KT 19/15 A2989 RMK A01 T01920151  RH  077%=      5-min Rain = 0
KWE1 150928Z 23004KT 19/15 A2989 RMK A01 T01910150  RH  077%=      5-min Rain = 0
KWE1 150929Z 22004KT 19/15 A2989 RMK A01 T01920151  RH  077%=      5-min Rain = 0
KWE1 150930Z 22004KT 19/15 A2989 RMK A01 T01920151  RH  077%=      5-min Rain = 0
KWE1 150931Z 22004KT 19/15 A2988 RMK A01 T01920150  RH  077%=      5-min Rain = 0
KWE1 150932Z 21004KT 19/15 A2988 RMK A01 T01910148  RH  076%=      5-min Rain = 0
KWE1 150933Z 21005KT 19/15 A2988 RMK A01 T01900148  RH  077%=      5-min Rain = 0
KWE1 150934Z 20005KT 19/15 A2988 RMK A01 T01900148  RH  077%=      5-min Rain = 0
KWE1 150935Z 21005KT 19/15 A2988 RMK A01 T01900148  RH  077%=      5-min Rain = 0
KWE1 150936Z 21004KT 19/15 A2988 RMK A01 T01910148  RH  076%=      5-min Rain = 0
KWE1 150937Z 20004KT 19/15 A2988 RMK A01 T01920148  RH  076%=      5-min Rain = 0
KWE1 150938Z 20004KT 19/15 A2988 RMK A01 T01920148  RH  076%=      5-min Rain = 0
KWE1 150939Z 20003KT 19/15 A2988 RMK A01 T01920148  RH  076%=      5-min Rain = 0
KWE1 150940Z 20003KT 19/15 A2988 RMK A01 T01920148  RH  075%=      5-min Rain = 0
KWE1 150941Z 19004KT 19/15 A2988 RMK A01 T01910147  RH  075%=      5-min Rain = 0
KWE1 150942Z 19004KT 19/15 A2988 RMK A01 T01900145  RH  075%=      5-min Rain = 0
KWE1 150943Z 19005KT 19/14 A2988 RMK A01 T01890141  RH  074%=      5-min Rain = 0
KWE1 150944Z 19005KT 19/14 A2988 RMK A01 T01870140  RH  074%=      5-min Rain = 0
KWE1 150945Z 18005KT 19/14 A2988 RMK A01 T01870140  RH  074%=      5-min Rain = 0
KWE1 150946Z 18006KT 19/14 A2988 RMK A01 T01850139  RH  074%=      5-min Rain = 0
KWE1 150947Z 17005KT 19/14 A2988 RMK A01 T01850139  RH  075%=      5-min Rain = 0
KWE1 150948Z 17005KT 19/14 A2988 RMK A01 T01850141  RH  076%=      5-min Rain = 0
KWE1 150949Z 17006KT 19/14 A2988 RMK A01 T01850142  RH  076%=      5-min Rain = 0
KWE1 150950Z 17006KT 19/14 A2988 RMK A01 T01860144  RH  076%=      5-min Rain = 0
KWE1 150951Z 17005KT 19/14 A2988 RMK A01 T01860143  RH  076%=      5-min Rain = 0
KWE1 150952Z 17005KT 19/14 A2988 RMK A01 T01860142  RH  075%=      5-min Rain = 0
KWE1 150953Z 18005KT 19/14 A2988 RMK A01 T01870143  RH  075%=      5-min Rain = 0
KWE1 150954Z 20004KT 19/14 A2988 RMK A01 T01870143  RH  075%=      5-min Rain = 0
KWE1 150955Z 20005KT 19/14 A2988 RMK A01 T01880142  RH  075%=      5-min Rain = 0
KWE1 150956Z 20005KT 19/14 A2988 RMK A01 T01870142  RH  075%=      5-min Rain = 0
KWE1 150957Z 20005KT 19/14 A2988 RMK A01 T01880144  RH  075%=      5-min Rain = 0
KWE1 150958Z 19005KT 19/15 A2988 RMK A01 T01890145  RH  076%=      5-min Rain = 0
KWE1 150959Z 19005KT 19/14 A2988 RMK A01 T01890144  RH  075%=      5-min Rain = 0
KWE1 151000Z 18006KT 19/14 A2988 RMK A01 T01890143  RH  075%=      5-min Rain = 0
KWE1 151001Z 18006KT 19/14 A2988 RMK A01 T01890143  RH  074%=      5-min Rain = 0
KWE1 151002Z 18006KT 19/14 A2987 RMK A01 T01880142  RH  074%=      5-min Rain = 0
KWE1 151003Z 17005KT 19/14 A2987 RMK A01 T01880141  RH  074%=      5-min Rain = 0
KWE1 151004Z 17006KT 19/14 A2987 RMK A01 T01870141  RH  074%=      5-min Rain = 0
KWE1 151005Z 18006KT 19/14 A2987 RMK A01 T01870141  RH  075%=      5-min Rain = 0
KWE1 151006Z 18006KT 19/14 A2987 RMK A01 T01870141  RH  075%=      5-min Rain = 0
KWE1 151007Z 18006KT 19/14 A2987 RMK A01 T01870141  RH  075%=      5-min Rain = 0
KWE1 151008Z 18006KT 19/14 A2987 RMK A01 T01870141  RH  075%=      5-min Rain = 0
KWE1 151009Z 18006KT 19/14 A2987 RMK A01 T01870141  RH  075%=      5-min Rain = 0
KWE1 151010Z 18007KT 19/14 A2987 RMK A01 T01870141  RH  075%=      5-min Rain = 0
KWE1 151011Z 18006KT 19/14 A2987 RMK A01 T01870141  RH  075%=      5-min Rain = 0
KWE1 151012Z 19006KT 19/14 A2987 RMK A01 T01870142  RH  075%=      5-min Rain = 0
KWE1 151013Z 19006KT 19/14 A2987 RMK A01 T01870142  RH  075%=      5-min Rain = 0
KWE1 151014Z 19006KT 19/14 A2987 RMK A01 T01870142  RH  075%=      5-min Rain = 0
KWE1 151015Z 19006KT 19/14 A2987 RMK A01 T01880144  RH  075%=      5-min Rain = 0
KWE1 151016Z 20007KT 19/15 A2987 RMK A01 T01890145  RH  075%=      5-min Rain = 0
KWE1 151017Z 19006KT 19/15 A2987 RMK A01 T01910145  RH  075%=      5-min Rain = 0
KWE1 151018Z 19005KT 19/14 A2987 RMK A01 T01920144  RH  074%=      5-min Rain = 0
KWE1 151019Z 20005KT 19/14 A2987 RMK A01 T01910144  RH  074%=      5-min Rain = 0
KWE1 151020Z 20005KT 19/14 A2987 RMK A01 T01910144  RH  074%=      5-min Rain = 0
KWE1 151021Z 20005KT 19/14 A2987 RMK A01 T01910144  RH  074%=      5-min Rain = 0
KWE1 151022Z 19004KT 19/14 A2987 RMK A01 T01910144  RH  074%=      5-min Rain = 0
KWE1 151023Z 19004KT 19/14 A2988 RMK A01 T01900144  RH  074%=      5-min Rain = 0
KWE1 151024Z 19004KT 19/14 A2988 RMK A01 T01910144  RH  074%=      5-min Rain = 0
KWE1 151025Z 19004KT 19/14 A2988 RMK A01 T01900143  RH  074%=      5-min Rain = 0
KWE1 151026Z 18004KT 19/14 A2988 RMK A01 T01890142  RH  074%=      5-min Rain = 0
KWE1 151027Z 18003KT 19/14 A2988 RMK A01 T01890140  RH  073%=      5-min Rain = 0
KWE1 151028Z 18004KT 19/14 A2988 RMK A01 T01880140  RH  074%=      5-min Rain = 0
KWE1 151029Z 19003KT 19/14 A2988 RMK A01 T01870140  RH  074%=      5-min Rain = 0
KWE1 151030Z 19002KT 19/14 A2988 RMK A01 T01860139  RH  074%=      5-min Rain = 0
KWE1 151031Z 20002KT 19/14 A2988 RMK A01 T01860139  RH  074%=      5-min Rain = 0
KWE1 151032Z 20002KT 19/14 A2988 RMK A01 T01860140  RH  074%=      5-min Rain = 0
KWE1 151033Z 20002KT 19/14 A2988 RMK A01 T01850139  RH  075%=      5-min Rain = 0
KWE1 151034Z 20001KT 19/14 A2988 RMK A01 T01850139  RH  075%=      5-min Rain = 0
KWE1 151035Z 19001KT 19/14 A2988 RMK A01 T01850140  RH  075%=      5-min Rain = 0
KWE1 151036Z 18002KT 18/14 A2988 RMK A01 T01840140  RH  075%=      5-min Rain = 0
KWE1 151037Z 17002KT 18/14 A2988 RMK A01 T01840140  RH  075%=      5-min Rain = 0
KWE1 151038Z 14001KT 18/14 A2988 RMK A01 T01840140  RH  075%=      5-min Rain = 0
KWE1 151039Z 12002KT 18/14 A2988 RMK A01 T01840141  RH  076%=      5-min Rain = 0
KWE1 151040Z 11001KT 18/14 A2988 RMK A01 T01840142  RH  076%=      5-min Rain = 0
KWE1 151041Z 12001KT 18/14 A2988 RMK A01 T01840142  RH  076%=      5-min Rain = 0
KWE1 151042Z 10001KT 18/14 A2988 RMK A01 T01830141  RH  077%=      5-min Rain = 0
KWE1 151043Z 11002KT 18/14 A2988 RMK A01 T01810141  RH  077%=      5-min Rain = 0
KWE1 151044Z 12003KT 18/14 A2988 RMK A01 T01800141  RH  078%=      5-min Rain = 0
KWE1 151045Z 12003KT 18/14 A2988 RMK A01 T01790140  RH  078%=      5-min Rain = 0
KWE1 151046Z 10003KT 18/14 A2988 RMK A01 T01780141  RH  079%=      5-min Rain = 0
KWE1 151047Z 12003KT 18/14 A2988 RMK A01 T01780141  RH  079%=      5-min Rain = 0
KWE1 151048Z 10003KT 18/14 A2988 RMK A01 T01790143  RH  079%=      5-min Rain = 0
KWE1 151049Z 10002KT 18/14 A2988 RMK A01 T01790143  RH  079%=      5-min Rain = 0
KWE1 151050Z 12002KT 18/14 A2988 RMK A01 T01790143  RH  079%=      5-min Rain = 0
KWE1 151051Z 12002KT 18/14 A2988 RMK A01 T01800143  RH  079%=      5-min Rain = 0
KWE1 151052Z 13002KT 18/14 A2988 RMK A01 T01800144  RH  079%=      5-min Rain = 0
KWE1 151053Z 14002KT 18/14 A2988 RMK A01 T01800144  RH  080%=      5-min Rain = 0
KWE1 151054Z 14002KT 18/14 A2988 RMK A01 T01800144  RH  080%=      5-min Rain = 0
KWE1 151055Z 13002KT 18/15 A2988 RMK A01 T01800145  RH  080%=      5-min Rain = 0
KWE1 151056Z 13001KT 18/15 A2988 RMK A01 T01800145  RH  080%=      5-min Rain = 0
KWE1 151057Z 13001KT 18/15 A2988 RMK A01 T01800145  RH  080%=      5-min Rain = 0
KWE1 151058Z 12002KT 18/15 A2988 RMK A01 T01800145  RH  080%=      5-min Rain = 0
KWE1 151059Z 12002KT 18/15 A2988 RMK A01 T01800145  RH  080%=      5-min Rain = 0
KWE1 151100Z 11002KT 18/15 A2988 RMK A01 T01800145  RH  080%=      5-min Rain = 0
KWE1 151101Z 11002KT 18/14 A2989 RMK A01 T01800144  RH  080%=      5-min Rain = 0
KWE1 151102Z 11002KT 18/15 A2989 RMK A01 T01800145  RH  080%=      5-min Rain = 0
KWE1 151103Z 11002KT 18/14 A2989 RMK A01 T01790144  RH  080%=      5-min Rain = 0
KWE1 151104Z 11002KT 18/14 A2989 RMK A01 T01780144  RH  080%=      5-min Rain = 0
KWE1 151105Z 11002KT 18/14 A2989 RMK A01 T01780143  RH  080%=      5-min Rain = 0
KWE1 151106Z 10002KT 18/14 A2989 RMK A01 T01770143  RH  080%=      5-min Rain = 0
KWE1 151107Z 12002KT 18/14 A2989 RMK A01 T01770143  RH  081%=      5-min Rain = 0
KWE1 151108Z 12002KT 18/14 A2989 RMK A01 T01760143  RH  081%=      5-min Rain = 0
KWE1 151109Z 12002KT 18/14 A299 RMK A01 T01760143  RH  081%=      5-min Rain = 0
KWE1 151110Z 12002KT 18/14 A299 RMK A01 T01760143  RH  081%=      5-min Rain = 0
KWE1 151111Z 12002KT 18/14 A299 RMK A01 T01760144  RH  081%=      5-min Rain = 0
KWE1 151112Z 12002KT 18/14 A299 RMK A01 T01760144  RH  081%=      5-min Rain = 0
KWE1 151113Z 11001KT 18/14 A299 RMK A01 T01760143  RH  081%=      5-min Rain = 0
KWE1 151114Z 11001KT 18/14 A299 RMK A01 T01760144  RH  082%=      5-min Rain = 0
KWE1 151115Z 08001KT 18/14 A299 RMK A01 T01750144  RH  082%=      5-min Rain = 0
KWE1 151116Z 09002KT 18/14 A299 RMK A01 T01750143  RH  081%=      5-min Rain = 0
KWE1 151117Z 09002KT 17/14 A299 RMK A01 T01740144  RH  082%=      5-min Rain = 0
KWE1 151118Z 09003KT 17/14 A299 RMK A01 T01740144  RH  082%=      5-min Rain = 0
KWE1 151119Z 09003KT 18/14 A299 RMK A01 T01750144  RH  082%=      5-min Rain = 0
KWE1 151120Z 10004KT 18/14 A299 RMK A01 T01750144  RH  082%=      5-min Rain = 0
KWE1 151121Z 10004KT 18/14 A299 RMK A01 T01750144  RH  082%=      5-min Rain = 0
KWE1 151122Z 10004KT 18/14 A299 RMK A01 T01750144  RH  082%=      5-min Rain = 0
KWE1 151123Z 09005KT 18/14 A299 RMK A01 T01750144  RH  082%=      5-min Rain = 0
KWE1 151124Z 08005KT 18/14 A299 RMK A01 T01750144  RH  082%=      5-min Rain = 0
KWE1 151125Z 08005KT 18/15 A299 RMK A01 T01750146  RH  083%=      5-min Rain = 0
KWE1 151126Z 08006KT 18/15 A2991 RMK A01 T01750146  RH  083%=      5-min Rain = 0
KWE1 151127Z 08007KT 18/15 A2991 RMK A01 T01760147  RH  083%=      5-min Rain = 0
KWE1 151128Z 08007KT 18/15 A2991 RMK A01 T01770147  RH  083%=      5-min Rain = 0
KWE1 151129Z 09007KT 18/15 A2991 RMK A01 T01770148  RH  083%=      5-min Rain = 0
KWE1 151130Z 10007KT 18/15 A2991 RMK A01 T01780149  RH  083%=      5-min Rain = 0
KWE1 151131Z 10006KT 18/15 A2991 RMK A01 T01780149  RH  083%=      5-min Rain = 0
KWE1 151132Z 10006KT 18/15 A2991 RMK A01 T01790150  RH  083%=      5-min Rain = 0
KWE1 151133Z 10005KT 18/15 A2991 RMK A01 T01800149  RH  082%=      5-min Rain = 0
KWE1 151134Z 10004KT 18/15 A2991 RMK A01 T01800149  RH  082%=      5-min Rain = 0
KWE1 151135Z 10004KT 18/15 A2992 RMK A01 T01800149  RH  082%=      5-min Rain = 0
KWE1 151136Z 09004KT 18/15 A2992 RMK A01 T01800150  RH  083%=      5-min Rain = 0
KWE1 151137Z 09005KT 18/15 A2992 RMK A01 T01790150  RH  083%=      5-min Rain = 0
KWE1 151138Z 09005KT 18/15 A2992 RMK A01 T01790151  RH  083%=      5-min Rain = 0
KWE1 151139Z 08005KT 18/15 A2992 RMK A01 T01790151  RH  083%=      5-min Rain = 0
KWE1 151140Z 08005KT 18/15 A2992 RMK A01 T01790150  RH  083%=      5-min Rain = 0
KWE1 151141Z 08006KT 18/15 A2992 RMK A01 T01790150  RH  083%=      5-min Rain = 0
KWE1 151142Z 08006KT 18/15 A2992 RMK A01 T01790151  RH  084%=      5-min Rain = 0
KWE1 151143Z 08005KT 18/15 A2992 RMK A01 T01790152  RH  084%=      5-min Rain = 0
KWE1 151144Z 08006KT 18/15 A2992 RMK A01 T01790153  RH  084%=      5-min Rain = 0
KWE1 151145Z 08006KT 18/15 A2992 RMK A01 T01790153  RH  085%=      5-min Rain = 0
KWE1 151146Z 09005KT 18/15 A2993 RMK A01 T01800154  RH  085%=      5-min Rain = 0
KWE1 151147Z 09005KT 18/15 A2993 RMK A01 T01800154  RH  085%=      5-min Rain = 0
KWE1 151148Z 09005KT 18/16 A2993 RMK A01 T01810155  RH  085%=      5-min Rain = 0
KWE1 151149Z 08004KT 18/16 A2993 RMK A01 T01810155  RH  085%=      5-min Rain = 0
KWE1 151150Z 08005KT 18/16 A2993 RMK A01 T01810155  RH  085%=      5-min Rain = 0
KWE1 151151Z 08006KT 18/16 A2993 RMK A01 T01820155  RH  085%=      5-min Rain = 0
KWE1 151152Z 08006KT 18/16 A2993 RMK A01 T01820155  RH  085%=      5-min Rain = 0
KWE1 151153Z 08004KT 18/16 A2993 RMK A01 T01820155  RH  085%=      5-min Rain = 0
KWE1 151154Z 09003KT 18/16 A2993 RMK A01 T01820155  RH  084%=      5-min Rain = 0
KWE1 151155Z 09003KT 18/16 A2993 RMK A01 T01820155  RH  084%=      5-min Rain = 0
KWE1 151156Z 10003KT 18/16 A2993 RMK A01 T01830156  RH  084%=      5-min Rain = 0
KWE1 151157Z 09003KT 18/16 A2993 RMK A01 T01840156  RH  084%=      5-min Rain = 0
KWE1 151158Z 09003KT 18/16 A2993 RMK A01 T01840156  RH  083%=      5-min Rain = 0
KWE1 151159Z 09003KT 19/16 A2993 RMK A01 T01850155  RH  083%=      5-min Rain = 0
KWE1 151200Z 11003KT 19/16 A2993 RMK A01 T01850155  RH  083%=      5-min Rain = 0
KWE1 151201Z 10003KT 19/16 A2993 RMK A01 T01850155  RH  083%=      5-min Rain = 0
KWE1 151202Z 10004KT 19/16 A2993 RMK A01 T01860156  RH  083%=      5-min Rain = 0
KWE1 151203Z 10003KT 19/16 A2993 RMK A01 T01870156  RH  082%=      5-min Rain = 0
KWE1 151204Z 10004KT 19/16 A2993 RMK A01 T01880156  RH  082%=      5-min Rain = 0
KWE1 151205Z 10003KT 19/16 A2993 RMK A01 T01880156  RH  082%=      5-min Rain = 0
KWE1 151206Z 11004KT 19/16 A2993 RMK A01 T01890156  RH  081%=      5-min Rain = 0
KWE1 151207Z 11004KT 19/16 A2993 RMK A01 T01900157  RH  081%=      5-min Rain = 0
KWE1 151208Z 11004KT 19/16 A2994 RMK A01 T01900157  RH  081%=      5-min Rain = 0
KWE1 151209Z 11002KT 19/16 A2994 RMK A01 T01900156  RH  081%=      5-min Rain = 0
KWE1 151210Z 12003KT 19/16 A2994 RMK A01 T01900157  RH  081%=      5-min Rain = 0
KWE1 151211Z 11004KT 19/16 A2994 RMK A01 T01910156  RH  081%=      5-min Rain = 0
KWE1 151212Z 10003KT 19/16 A2994 RMK A01 T01910156  RH  080%=      5-min Rain = 0
KWE1 151213Z 10003KT 19/16 A2994 RMK A01 T01910157  RH  080%=      5-min Rain = 0
KWE1 151214Z 11004KT 19/16 A2994 RMK A01 T01910157  RH  080%=      5-min Rain = 0
KWE1 151215Z 11004KT 19/16 A2994 RMK A01 T01910157  RH  080%=      5-min Rain = 0
KWE1 151216Z 11004KT 19/16 A2994 RMK A01 T01920157  RH  080%=      5-min Rain = 0
KWE1 151217Z 11004KT 19/16 A2994 RMK A01 T01920157  RH  080%=      5-min Rain = 0
KWE1 151218Z 11003KT 19/16 A2994 RMK A01 T01920157  RH  080%=      5-min Rain = 0
KWE1 151219Z 10003KT 19/16 A2994 RMK A01 T01930157  RH  080%=      5-min Rain = 0
KWE1 151220Z 09003KT 19/16 A2994 RMK A01 T01940157  RH  079%=      5-min Rain = 0
KWE1 151221Z 08003KT 19/16 A2995 RMK A01 T01940157  RH  079%=      5-min Rain = 0
KWE1 151222Z 06003KT 19/16 A2995 RMK A01 T01940157  RH  079%=      5-min Rain = 0
KWE1 151223Z 06003KT 20/16 A2995 RMK A01 T01950157  RH  079%=      5-min Rain = 0
KWE1 151224Z 05003KT 20/16 A2995 RMK A01 T01950157  RH  078%=      5-min Rain = 0
KWE1 151225Z 04002KT 20/16 A2995 RMK A01 T01950157  RH  078%=      5-min Rain = 0
KWE1 151226Z 04003KT 20/16 A2995 RMK A01 T01960157  RH  078%=      5-min Rain = 0
KWE1 151227Z 05003KT 20/16 A2995 RMK A01 T01960157  RH  078%=      5-min Rain = 0
KWE1 151228Z 05003KT 20/16 A2995 RMK A01 T01970157  RH  078%=      5-min Rain = 0
KWE1 151229Z 04003KT 20/16 A2995 RMK A01 T01970157  RH  077%=      5-min Rain = 0
KWE1 151230Z 04003KT 20/16 A2995 RMK A01 T01980157  RH  077%=      5-min Rain = 0
KWE1 151231Z 05003KT 20/16 A2995 RMK A01 T01980158  RH  077%=      5-min Rain = 0
KWE1 151232Z 06003KT 20/16 A2995 RMK A01 T01980157  RH  077%=      5-min Rain = 0
KWE1 151233Z 07003KT 20/16 A2995 RMK A01 T01990157  RH  077%=      5-min Rain = 0
KWE1 151234Z 08003KT 20/16 A2995 RMK A01 T01990157  RH  077%=      5-min Rain = 0
KWE1 151235Z 08003KT 20/16 A2995 RMK A01 T02000157  RH  076%=      5-min Rain = 0
KWE1 151236Z 09004KT 20/16 A2995 RMK A01 T02000157  RH  076%=      5-min Rain = 0
KWE1 151237Z 09003KT 20/16 A2995 RMK A01 T02010156  RH  075%=      5-min Rain = 0
KWE1 151238Z 09002KT 20/16 A2995 RMK A01 T02020156  RH  075%=      5-min Rain = 0
KWE1 151239Z 10003KT 20/16 A2995 RMK A01 T02020156  RH  075%=      5-min Rain = 0
KWE1 151240Z 09003KT 20/16 A2995 RMK A01 T02030156  RH  074%=      5-min Rain = 0
KWE1 151241Z 08003KT 20/16 A2995 RMK A01 T02040156  RH  074%=      5-min Rain = 0
KWE1 151242Z 09003KT 21/16 A2996 RMK A01 T02050156  RH  073%=      5-min Rain = 0
KWE1 151243Z 09003KT 21/16 A2996 RMK A01 T02060156  RH  073%=      5-min Rain = 0
KWE1 151244Z 08003KT 21/16 A2996 RMK A01 T02070157  RH  073%=      5-min Rain = 0
KWE1 151245Z 09004KT 21/16 A2996 RMK A01 T02080156  RH  072%=      5-min Rain = 0
KWE1 151246Z 08005KT 21/16 A2996 RMK A01 T02080155  RH  072%=      5-min Rain = 0
KWE1 151247Z 09005KT 21/16 A2996 RMK A01 T02090156  RH  071%=      5-min Rain = 0
KWE1 151248Z 09004KT 21/16 A2996 RMK A01 T02090155  RH  071%=      5-min Rain = 0
KWE1 151249Z 09004KT 21/16 A2996 RMK A01 T02100155  RH  071%=      5-min Rain = 0
KWE1 151250Z 10004KT 21/16 A2996 RMK A01 T02100155  RH  071%=      5-min Rain = 0
KWE1 151251Z 10004KT 21/16 A2996 RMK A01 T02110155  RH  070%=      5-min Rain = 0
KWE1 151252Z 10004KT 21/16 A2996 RMK A01 T02110156  RH  070%=      5-min Rain = 0
KWE1 151253Z 10004KT 21/16 A2996 RMK A01 T02120156  RH  070%=      5-min Rain = 0
KWE1 151254Z 10003KT 21/16 A2996 RMK A01 T02130157  RH  071%=      5-min Rain = 0
KWE1 151255Z 11003KT 21/16 A2996 RMK A01 T02140158  RH  071%=      5-min Rain = 0
KWE1 151256Z 10003KT 22/16 A2996 RMK A01 T02150158  RH  070%=      5-min Rain = 0
KWE1 151257Z 12003KT 22/16 A2996 RMK A01 T02160156  RH  069%=      5-min Rain = 0
KWE1 151258Z 12004KT 22/15 A2996 RMK A01 T02170153  RH  067%=      5-min Rain = 0
KWE1 151259Z 11005KT 22/15 A2996 RMK A01 T02180153  RH  067%=      5-min Rain = 0
KWE1 151300Z 12005KT 22/15 A2996 RMK A01 T02180153  RH  066%=      5-min Rain = 0
KWE1 151301Z 11005KT 22/15 A2996 RMK A01 T02190153  RH  066%=      5-min Rain = 0
KWE1 151302Z 11005KT 22/15 A2996 RMK A01 T02190154  RH  066%=      5-min Rain = 0
KWE1 151303Z 11005KT 22/15 A2996 RMK A01 T02200154  RH  066%=      5-min Rain = 0
KWE1 151304Z 11006KT 22/15 A2996 RMK A01 T02200154  RH  066%=      5-min Rain = 0
KWE1 151305Z 11006KT 22/15 A2996 RMK A01 T02200153  RH  066%=      5-min Rain = 0
KWE1 151306Z 11006KT 22/15 A2996 RMK A01 T02210153  RH  065%=      5-min Rain = 0
KWE1 151307Z 11006KT 22/15 A2996 RMK A01 T02200152  RH  065%=      5-min Rain = 0
KWE1 151308Z 11006KT 22/15 A2996 RMK A01 T02210152  RH  065%=      5-min Rain = 0
KWE1 151309Z 11006KT 22/15 A2996 RMK A01 T02210153  RH  065%=      5-min Rain = 0
KWE1 151310Z 10006KT 22/15 A2996 RMK A01 T02220154  RH  065%=      5-min Rain = 0
KWE1 151311Z 11005KT 22/15 A2996 RMK A01 T02220154  RH  065%=      5-min Rain = 0
KWE1 151312Z 11007KT 22/16 A2996 RMK A01 T02220155  RH  065%=      5-min Rain = 0
KWE1 151313Z 11008KT 22/15 A2996 RMK A01 T02230154  RH  065%=      5-min Rain = 0
KWE1 151314Z 11007KT 22/15 A2996 RMK A01 T02220154  RH  065%=      5-min Rain = 0
KWE1 151315Z 11007KT 22/15 A2996 RMK A01 T02210154  RH  066%=      5-min Rain = 0
KWE1 151316Z 11006KT 22/15 A2996 RMK A01 T02210154  RH  066%=      5-min Rain = 0
KWE1 151317Z 11006KT 22/15 A2996 RMK A01 T02220154  RH  066%=      5-min Rain = 0
KWE1 151318Z 11007KT 22/16 A2996 RMK A01 T02210155  RH  066%=      5-min Rain = 0
KWE1 151319Z 11005KT 22/16 A2996 RMK A01 T02210156  RH  066%=      5-min Rain = 0
KWE1 151320Z 10005KT 22/16 A2997 RMK A01 T02220157  RH  066%=      5-min Rain = 0
KWE1 151321Z 11006KT 22/16 A2997 RMK A01 T02240156  RH  066%=      5-min Rain = 0
KWE1 151322Z 12007KT 22/16 A2997 RMK A01 T02240156  RH  065%=      5-min Rain = 0
KWE1 151323Z 12006KT 22/16 A2997 RMK A01 T02240156  RH  066%=      5-min Rain = 0
KWE1 151324Z 13008KT 22/16 A2996 RMK A01 T02240156  RH  065%=      5-min Rain = 0
KWE1 151325Z 13007KT 23/16 A2996 RMK A01 T02250156  RH  065%=      5-min Rain = 0
KWE1 151326Z 14009KT 23/16 A2996 RMK A01 T02260158  RH  065%=      5-min Rain = 0
KWE1 151327Z 13008KT 23/16 A2996 RMK A01 T02270159  RH  066%=      5-min Rain = 0
KWE1 151328Z 15008KT 23/16 A2996 RMK A01 T02270160  RH  066%=      5-min Rain = 0
KWE1 151329Z 15008KT 23/16 A2996 RMK A01 T02270161  RH  066%=      5-min Rain = 0
KWE1 151330Z 15008KT 23/16 A2996 RMK A01 T02290162  RH  066%=      5-min Rain = 0
KWE1 151331Z 16009KT 23/16 A2997 RMK A01 T02310163  RH  066%=      5-min Rain = 0
KWE1 151332Z 15009KT 23/16 A2997 RMK A01 T02310163  RH  065%=      5-min Rain = 0
KWE1 151333Z 14009KT 23/16 A2997 RMK A01 T02310162  RH  065%=      5-min Rain = 0
KWE1 151334Z 14010KT 23/16 A2997 RMK A01 T02300163  RH  066%=      5-min Rain = 0
KWE1 151335Z 14008KT 23/16 A2997 RMK A01 T02290163  RH  066%=      5-min Rain = 0
KWE1 151336Z 14010KT 23/16 A2997 RMK A01 T02290164  RH  067%=      5-min Rain = 0
KWE1 151337Z 13011KT 23/16 A2997 RMK A01 T02290164  RH  067%=      5-min Rain = 0
KWE1 151338Z 14009KT 23/17 A2997 RMK A01 T02290166  RH  067%=      5-min Rain = 0
KWE1 151339Z 14010KT 23/17 A2997 RMK A01 T02280166  RH  068%=      5-min Rain = 0
KWE1 151340Z 14009KT 23/17 A2997 RMK A01 T02280166  RH  068%=      5-min Rain = 0
KWE1 151341Z 15007KT 23/17 A2997 RMK A01 T02280167  RH  068%=      5-min Rain = 0
KWE1 151342Z 15009KT 23/17 A2997 RMK A01 T02300167  RH  068%=      5-min Rain = 0
KWE1 151343Z 16008KT 23/17 A2997 RMK A01 T02310168  RH  068%=      5-min Rain = 0
KWE1 151344Z 16008KT 23/17 A2996 RMK A01 T02300167  RH  068%=      5-min Rain = 0
KWE1 151345Z 16010KT 23/17 A2996 RMK A01 T02300167  RH  068%=      5-min Rain = 0
KWE1 151346Z 15010KT 23/17 A2996 RMK A01 T02300166  RH  067%=      5-min Rain = 0
KWE1 151347Z 15009KT 23/17 A2996 RMK A01 T02300166  RH  067%=      5-min Rain = 0
KWE1 151348Z 15008KT 23/17 A2996 RMK A01 T02300166  RH  067%=      5-min Rain = 0
KWE1 151349Z 15008KT 23/17 A2996 RMK A01 T02300167  RH  068%=      5-min Rain = 0
KWE1 151350Z 15008KT 23/17 A2996 RMK A01 T02300167  RH  068%=      5-min Rain = 0
KWE1 151351Z 15009KT 23/17 A2996 RMK A01 T02310167  RH  067%=      5-min Rain = 0
KWE1 151352Z 15007KT 23/17 A2997 RMK A01 T02300167  RH  068%=      5-min Rain = 0
KWE1 151353Z 14010KT 23/17 A2997 RMK A01 T02300167  RH  067%=      5-min Rain = 0
KWE1 151354Z 14010KT 23/17 A2997 RMK A01 T02310166  RH  067%=      5-min Rain = 0
KWE1 151355Z 15008KT 23/17 A2997 RMK A01 T02320167  RH  067%=      5-min Rain = 0
KWE1 151356Z 15007KT 23/17 A2997 RMK A01 T02320167  RH  067%=      5-min Rain = 0
KWE1 151357Z 15007KT 23/17 A2997 RMK A01 T02320168  RH  067%=      5-min Rain = 0
KWE1 151358Z 16007KT 23/17 A2997 RMK A01 T02340168  RH  066%=      5-min Rain = 0
KWE1 151359Z 15008KT 24/17 A2997 RMK A01 T02350168  RH  066%=      5-min Rain = 0
KWE1 151400Z 15008KT 24/17 A2997 RMK A01 T02370168  RH  065%=      5-min Rain = 0
KWE1 151401Z 16006KT 24/17 A2997 RMK A01 T02380167  RH  065%=      5-min Rain = 0
KWE1 151402Z 15005KT 24/17 A2997 RMK A01 T02380167  RH  064%=      5-min Rain = 0
KWE1 151403Z 15008KT 24/17 A2997 RMK A01 T02390168  RH  064%=      5-min Rain = 0
KWE1 151404Z 14009KT 24/17 A2997 RMK A01 T02400166  RH  063%=      5-min Rain = 0
KWE1 151405Z 16010KT 24/17 A2997 RMK A01 T02420165  RH  062%=      5-min Rain = 0
KWE1 151406Z 16009KT 24/16 A2997 RMK A01 T02430164  RH  062%=      5-min Rain = 0
KWE1 151407Z 15008KT 24/16 A2997 RMK A01 T02430164  RH  061%=      5-min Rain = 0
KWE1 151408Z 15010KT 24/16 A2997 RMK A01 T02430164  RH  061%=      5-min Rain = 0
KWE1 151409Z 16009KT 24/16 A2997 RMK A01 T02440163  RH  061%=      5-min Rain = 0
KWE1 151410Z 17007KT 24/17 A2997 RMK A01 T02440165  RH  061%=      5-min Rain = 0
KWE1 151411Z 16007KT 25/17 A2997 RMK A01 T02460165  RH  061%=      5-min Rain = 0
KWE1 151412Z 14008KT 25/17 A2997 RMK A01 T02470166  RH  061%=      5-min Rain = 0
KWE1 151413Z 15008KT 25/16 A2997 RMK A01 T02480164  RH  060%=      5-min Rain = 0
KWE1 151414Z 17009KT 25/17 A2996 RMK A01 T02470165  RH  060%=      5-min Rain = 0
KWE1 151415Z 17010KT 25/17 A2996 RMK A01 T02480166  RH  060%=      5-min Rain = 0
KWE1 151416Z 16008KT 25/17 A2996 RMK A01 T02500165  RH  059%=      5-min Rain = 0
KWE1 151417Z 15007KT 25/17 A2996 RMK A01 T02510167  RH  059%=      5-min Rain = 0
KWE1 151418Z 15010KT 25/17 A2996 RMK A01 T02540167  RH  058%=      5-min Rain = 0
KWE1 151419Z 15008KT 26/17 A2996 RMK A01 T02550167  RH  058%=      5-min Rain = 0
KWE1 151420Z 16009KT 25/17 A2996 RMK A01 T02540168  RH  059%=      5-min Rain = 0
KWE1 151421Z 16008KT 25/17 A2996 RMK A01 T02540166  RH  058%=      5-min Rain = 0
KWE1 151422Z 16007KT 25/17 A2996 RMK A01 T02530167  RH  059%=      5-min Rain = 0
KWE1 151423Z 16007KT 25/17 A2996 RMK A01 T02530167  RH  059%=      5-min Rain = 0
KWE1 151424Z 18009KT 25/17 A2996 RMK A01 T02530167  RH  059%=      5-min Rain = 0
KWE1 151425Z 17006KT 26/17 A2996 RMK A01 T02550166  RH  058%=      5-min Rain = 0
KWE1 151426Z 18009KT 26/17 A2996 RMK A01 T02550166  RH  058%=      5-min Rain = 0
KWE1 151427Z 18008KT 25/17 A2996 RMK A01 T02540166  RH  058%=      5-min Rain = 0
KWE1 151428Z 17006KT 25/17 A2996 RMK A01 T02540167  RH  059%=      5-min Rain = 0
KWE1 151429Z 17007KT 26/17 A2996 RMK A01 T02560168  RH  058%=      5-min Rain = 0
KWE1 151430Z 16008KT 26/17 A2996 RMK A01 T02570167  RH  057%=      5-min Rain = 0
KWE1 151431Z 16007KT 26/17 A2996 RMK A01 T02570167  RH  057%=      5-min Rain = 0
KWE1 151432Z 16007KT 26/17 A2996 RMK A01 T02560166  RH  058%=      5-min Rain = 0
KWE1 151433Z 14007KT 26/17 A2996 RMK A01 T02560167  RH  058%=      5-min Rain = 0
KWE1 151434Z 13006KT 26/17 A2996 RMK A01 T02580167  RH  057%=      5-min Rain = 0
KWE1 151435Z 17005KT 26/17 A2996 RMK A01 T02590166  RH  056%=      5-min Rain = 0
KWE1 151436Z 16007KT 26/17 A2996 RMK A01 T02600167  RH  056%=      5-min Rain = 0
KWE1 151437Z 14005KT 26/17 A2996 RMK A01 T02610166  RH  056%=      5-min Rain = 0
KWE1 151438Z 15007KT 26/17 A2996 RMK A01 T02630168  RH  056%=      5-min Rain = 0
KWE1 151439Z 15008KT 26/17 A2996 RMK A01 T02630167  RH  055%=      5-min Rain = 0
KWE1 151440Z 16008KT 26/17 A2996 RMK A01 T02610167  RH  056%=      5-min Rain = 0
KWE1 151441Z 17009KT 26/17 A2996 RMK A01 T02600166  RH  056%=      5-min Rain = 0
KWE1 151442Z 18007KT 26/17 A2996 RMK A01 T02590166  RH  056%=      5-min Rain = 0
KWE1 151443Z 15007KT 26/17 A2996 RMK A01 T02580166  RH  057%=      5-min Rain = 0
KWE1 151444Z 14007KT 26/17 A2996 RMK A01 T02600166  RH  056%=      5-min Rain = 0
KWE1 151445Z 16008KT 26/17 A2996 RMK A01 T02610167  RH  056%=      5-min Rain = 0
KWE1 151446Z 16006KT 26/17 A2997 RMK A01 T02620166  RH  056%=      5-min Rain = 0
KWE1 151447Z 16008KT 26/17 A2997 RMK A01 T02610167  RH  056%=      5-min Rain = 0
KWE1 151448Z 16008KT 26/17 A2997 RMK A01 T02600166  RH  056%=      5-min Rain = 0
KWE1 151449Z 15006KT 26/17 A2997 RMK A01 T02590166  RH  057%=      5-min Rain = 0
KWE1 151450Z 15007KT 26/17 A2997 RMK A01 T02590167  RH  057%=      5-min Rain = 0
KWE1 151451Z 15008KT 26/17 A2997 RMK A01 T02600167  RH  056%=      5-min Rain = 0
KWE1 151452Z 17006KT 26/17 A2997 RMK A01 T02610167  RH  056%=      5-min Rain = 0
KWE1 151453Z 16004KT 26/17 A2996 RMK A01 T02600168  RH  057%=      5-min Rain = 0
KWE1 151454Z 12004KT 26/17 A2996 RMK A01 T02620168  RH  056%=      5-min Rain = 0
KWE1 151455Z 13007KT 27/17 A2996 RMK A01 T02650169  RH  056%=      5-min Rain = 0
KWE1 151456Z 14007KT 27/17 A2996 RMK A01 T02690169  RH  054%=      5-min Rain = 0
KWE1 151457Z 17006KT 27/17 A2996 RMK A01 T02700168  RH  054%=      5-min Rain = 0
KWE1 151458Z 15005KT 27/17 A2996 RMK A01 T02710170  RH  054%=      5-min Rain = 0
KWE1 151459Z 15006KT 27/17 A2996 RMK A01 T02730170  RH  054%=      5-min Rain = 0
KWE1 151500Z 14006KT 27/17 A2996 RMK A01 T02730170  RH  053%=      5-min Rain = 0
KWE1 151501Z 14006KT 27/17 A2996 RMK A01 T02730170  RH  053%=      5-min Rain = 0
KWE1 151502Z 13007KT 27/17 A2996 RMK A01 T02740170  RH  053%=      5-min Rain = 0
KWE1 151503Z 14006KT 27/17 A2996 RMK A01 T02730168  RH  053%=      5-min Rain = 0
KWE1 151504Z 15007KT 27/17 A2996 RMK A01 T02700168  RH  054%=      5-min Rain = 0
KWE1 151505Z 14005KT 27/17 A2996 RMK A01 T02670167  RH  054%=      5-min Rain = 0
KWE1 151506Z 15002KT 26/17 A2996 RMK A01 T02640166  RH  055%=      5-min Rain = 0
KWE1 151507Z 16004KT 26/17 A2996 RMK A01 T02630167  RH  056%=      5-min Rain = 0
KWE1 151508Z 13007KT 26/17 A2996 RMK A01 T02620167  RH  056%=      5-min Rain = 0
KWE1 151509Z 13006KT 26/17 A2996 RMK A01 T02620166  RH  056%=      5-min Rain = 0
KWE1 151510Z 12005KT 26/17 A2996 RMK A01 T02620166  RH  055%=      5-min Rain = 0
KWE1 151511Z 12005KT 26/17 A2997 RMK A01 T02610167  RH  056%=      5-min Rain = 0
KWE1 151512Z 12006KT 26/17 A2997 RMK A01 T02600166  RH  056%=      5-min Rain = 0
KWE1 151513Z 12005KT 26/17 A2997 RMK A01 T02600167  RH  056%=      5-min Rain = 0
KWE1 151514Z 13004KT 26/17 A2997 RMK A01 T02590167  RH  057%=      5-min Rain = 0
KWE1 151515Z 13002KT 26/17 A2997 RMK A01 T02590167  RH  057%=      5-min Rain = 0
KWE1 151516Z 13005KT 26/17 A2997 RMK A01 T02590167  RH  057%=      5-min Rain = 0
KWE1 151517Z 13006KT 26/17 A2997 RMK A01 T02600166  RH  056%=      5-min Rain = 0
KWE1 151518Z 14005KT 26/17 A2997 RMK A01 T02600166  RH  056%=      5-min Rain = 0
KWE1 151519Z 13005KT 26/17 A2997 RMK A01 T02610166  RH  056%=      5-min Rain = 0
KWE1 151520Z 13003KT 26/17 A2997 RMK A01 T02610166  RH  056%=      5-min Rain = 0
KWE1 151521Z 11002KT 26/17 A2997 RMK A01 T02610166  RH  056%=      5-min Rain = 0
KWE1 151522Z 12005KT 26/17 A2997 RMK A01 T02610166  RH  056%=      5-min Rain = 0
KWE1 151523Z 16006KT 26/17 A2997 RMK A01 T02610166  RH  056%=      5-min Rain = 0
KWE1 151524Z 17004KT 26/17 A2997 RMK A01 T02620166  RH  056%=      5-min Rain = 0
KWE1 151525Z 17004KT 26/17 A2997 RMK A01 T02620166  RH  056%=      5-min Rain = 0
KWE1 151526Z 18003KT 26/17 A2997 RMK A01 T02610166  RH  056%=      5-min Rain = 0
KWE1 151527Z 15002KT 26/17 A2997 RMK A01 T02610166  RH  056%=      5-min Rain = 0
KWE1 151528Z 15003KT 26/17 A2997 RMK A01 T02620166  RH  055%=      5-min Rain = 0
KWE1 151529Z 14005KT 26/17 A2997 RMK A01 T02620167  RH  056%=      5-min Rain = 0
KWE1 151530Z 13003KT 26/17 A2997 RMK A01 T02610166  RH  056%=      5-min Rain = 0
KWE1 151531Z 15003KT 26/17 A2997 RMK A01 T02600166  RH  056%=      5-min Rain = 0
KWE1 151532Z 15003KT 26/17 A2997 RMK A01 T02600166  RH  056%=      5-min Rain = 0
KWE1 151533Z 17003KT 26/17 A2997 RMK A01 T02600165  RH  056%=      5-min Rain = 0
KWE1 151534Z 16004KT 26/17 A2997 RMK A01 T02590165  RH  056%=      5-min Rain = 0
KWE1 151535Z 16004KT 26/17 A2997 RMK A01 T02590165  RH  056%=      5-min Rain = 0
KWE1 151536Z 15004KT 26/17 A2997 RMK A01 T02590165  RH  056%=      5-min Rain = 0
KWE1 151537Z 15003KT 26/17 A2997 RMK A01 T02590165  RH  056%=      5-min Rain = 0
KWE1 151538Z 14003KT 26/17 A2997 RMK A01 T02600165  RH  056%=      5-min Rain = 0
KWE1 151539Z 14003KT 26/17 A2997 RMK A01 T02610165  RH  056%=      5-min Rain = 0
KWE1 151540Z 12002KT 26/17 A2997 RMK A01 T02620165  RH  055%=      5-min Rain = 0
KWE1 151541Z 10002KT 26/17 A2997 RMK A01 T02640165  RH  055%=      5-min Rain = 0
KWE1 151542Z 10002KT 27/17 A2997 RMK A01 T02660167  RH  055%=      5-min Rain = 0
KWE1 151543Z 10003KT 27/17 A2998 RMK A01 T02690166  RH  053%=      5-min Rain = 0
KWE1 151544Z 10003KT 27/17 A2998 RMK A01 T02700167  RH  053%=      5-min Rain = 0
KWE1 151545Z 08003KT 27/17 A2998 RMK A01 T02700168  RH  054%=      5-min Rain = 0
KWE1 151546Z 08003KT 27/17 A2998 RMK A01 T02710169  RH  054%=      5-min Rain = 0
KWE1 151547Z 10004KT 27/17 A2998 RMK A01 T02730170  RH  053%=      5-min Rain = 0
KWE1 151548Z 11004KT 28/17 A2998 RMK A01 T02760170  RH  052%=      5-min Rain = 0
KWE1 151549Z 13004KT 28/17 A2998 RMK A01 T02800168  RH  051%=      5-min Rain = 0
KWE1 151550Z 11003KT 28/17 A2998 RMK A01 T02810169  RH  050%=      5-min Rain = 0
KWE1 151551Z 06002KT 28/17 A2998 RMK A01 T02810169  RH  051%=      5-min Rain = 0
KWE1 151552Z 04001KT 28/17 A2998 RMK A01 T02810169  RH  051%=      5-min Rain = 0
KWE1 151553Z 12003KT 28/17 A2998 RMK A01 T02810169  RH  051%=      5-min Rain = 0
KWE1 151554Z 11004KT 28/17 A2998 RMK A01 T02820169  RH  050%=      5-min Rain = 0
KWE1 151555Z 10002KT 28/17 A2998 RMK A01 T02830170  RH  050%=      5-min Rain = 0
KWE1 151556Z 13003KT 28/17 A2998 RMK A01 T02820169  RH  050%=      5-min Rain = 0
KWE1 151557Z 15005KT 28/17 A2998 RMK A01 T02820168  RH  050%=      5-min Rain = 0
KWE1 151558Z 15006KT 28/17 A2998 RMK A01 T02820168  RH  050%=      5-min Rain = 0
KWE1 151559Z 16003KT 28/17 A2998 RMK A01 T02830168  RH  050%=      5-min Rain = 0
KWE1 151600Z 12004KT 28/17 A2998 RMK A01 T02840169  RH  050%=      5-min Rain = 0
KWE1 151601Z 09006KT 28/17 A2998 RMK A01 T02840169  RH  049%=      5-min Rain = 0
KWE1 151602Z 09005KT 28/17 A2998 RMK A01 T02830167  RH  049%=      5-min Rain = 0
KWE1 151603Z 10005KT 28/17 A2998 RMK A01 T02820168  RH  050%=      5-min Rain = 0
KWE1 151604Z 13004KT 28/17 A2998 RMK A01 T02820165  RH  049%=      5-min Rain = 0
KWE1 151605Z 13003KT 28/17 A2998 RMK A01 T02820165  RH  049%=      5-min Rain = 0
KWE1 151606Z 12002KT 28/17 A2998 RMK A01 T02810166  RH  050%=      5-min Rain = 0
KWE1 151607Z 08002KT 28/17 A2998 RMK A01 T02800166  RH  050%=      5-min Rain = 0
KWE1 151608Z 06004KT 28/17 A2998 RMK A01 T02790167  RH  051%=      5-min Rain = 0
KWE1 151609Z 07003KT 28/17 A2998 RMK A01 T02760165  RH  051%=      5-min Rain = 0
KWE1 151610Z 05005KT 28/17 A2999 RMK A01 T02760166  RH  051%=      5-min Rain = 0
KWE1 151611Z 06004KT 28/17 A2999 RMK A01 T02770165  RH  051%=      5-min Rain = 0
KWE1 151612Z 05003KT 28/17 A2999 RMK A01 T02770165  RH  050%=      5-min Rain = 0
KWE1 151613Z 03002KT 28/17 A2999 RMK A01 T02770166  RH  051%=      5-min Rain = 0
KWE1 151614Z 02002KT 28/17 A2999 RMK A01 T02770165  RH  050%=      5-min Rain = 0
KWE1 151615Z 03002KT 28/17 A2999 RMK A01 T02770166  RH  051%=      5-min Rain = 0
KWE1 151616Z 34001KT 28/17 A2999 RMK A01 T02800166  RH  050%=      5-min Rain = 0
KWE1 151617Z 32002KT 28/17 A2999 RMK A01 T02830167  RH  049%=      5-min Rain = 0
KWE1 151618Z 02002KT 28/17 A2999 RMK A01 T02840169  RH  050%=      5-min Rain = 0
KWE1 151619Z 07004KT 29/17 A2999 RMK A01 T02860170  RH  049%=      5-min Rain = 0
KWE1 151620Z 08005KT 29/17 A2999 RMK A01 T02860166  RH  048%=      5-min Rain = 0
KWE1 151621Z 08002KT 28/17 A2999 RMK A01 T02830166  RH  049%=      5-min Rain = 0
KWE1 151622Z 14002KT 28/17 A2999 RMK A01 T02830166  RH  049%=      5-min Rain = 0
KWE1 151623Z 15003KT 29/17 A2999 RMK A01 T02850166  RH  048%=      5-min Rain = 0
KWE1 151624Z 09001KT 29/17 A2999 RMK A01 T02860166  RH  048%=      5-min Rain = 0
KWE1 151625Z 03001KT 29/17 A2999 RMK A01 T02860167  RH  048%=      5-min Rain = 0
KWE1 151626Z 09002KT 29/17 A2999 RMK A01 T02880166  RH  048%=      5-min Rain = 0
KWE1 151627Z 07006KT 29/17 A2999 RMK A01 T02890168  RH  048%=      5-min Rain = 0
KWE1 151628Z 06007KT 29/17 A2999 RMK A01 T02880167  RH  048%=      5-min Rain = 0
KWE1 151629Z 05006KT 29/17 A2999 RMK A01 T02850167  RH  049%=      5-min Rain = 0
KWE1 151630Z 05004KT 28/17 A2999 RMK A01 T02810167  RH  050%=      5-min Rain = 0
KWE1 151631Z 07004KT 28/17 A2999 RMK A01 T02790167  RH  051%=      5-min Rain = 0
KWE1 151632Z 02005KT 28/17 A2999 RMK A01 T02810168  RH  050%=      5-min Rain = 0
KWE1 151633Z 02005KT 28/17 A2999 RMK A01 T02830168  RH  050%=      5-min Rain = 0
KWE1 151634Z 04005KT 28/17 A2999 RMK A01 T02840170  RH  050%=      5-min Rain = 0
KWE1 151635Z 05005KT 29/17 A2999 RMK A01 T02850169  RH  050%=      5-min Rain = 0
KWE1 151636Z 06005KT 28/17 A2999 RMK A01 T02840170  RH  050%=      5-min Rain = 0
KWE1 151637Z 04002KT 28/17 A2999 RMK A01 T02840170  RH  050%=      5-min Rain = 0
KWE1 151638Z 02002KT 28/17 A2999 RMK A01 T02840169  RH  049%=      5-min Rain = 0
KWE1 151639Z 36002KT 28/17 A2998 RMK A01 T02840167  RH  049%=      5-min Rain = 0
KWE1 151640Z 28001KT 28/17 A2998 RMK A01 T02820166  RH  049%=      5-min Rain = 0
KWE1 151641Z 33004KT 28/17 A2998 RMK A01 T02810167  RH  050%=      5-min Rain = 0
KWE1 151642Z 30004KT 28/17 A2998 RMK A01 T02830169  RH  050%=      5-min Rain = 0
KWE1 151643Z 30003KT 28/17 A2998 RMK A01 T02830168  RH  050%=      5-min Rain = 0
KWE1 151644Z 03003KT 28/17 A2998 RMK A01 T02840170  RH  050%=      5-min Rain = 0
KWE1 151645Z 03006KT 29/17 A2998 RMK A01 T02880171  RH  049%=      5-min Rain = 0
KWE1 151646Z 02007KT 29/17 A2998 RMK A01 T02910170  RH  048%=      5-min Rain = 0
KWE1 151647Z 02005KT 29/17 A2998 RMK A01 T02900169  RH  048%=      5-min Rain = 0
KWE1 151648Z 02004KT 29/17 A2998 RMK A01 T02900170  RH  048%=      5-min Rain = 0
KWE1 151649Z 36006KT 29/17 A2998 RMK A01 T02910169  RH  048%=      5-min Rain = 0
KWE1 151650Z 36005KT 29/17 A2998 RMK A01 T02910169  RH  048%=      5-min Rain = 0
KWE1 151651Z 01005KT 29/17 A2998 RMK A01 T02890168  RH  048%=      5-min Rain = 0
KWE1 151652Z 35004KT 29/17 A2998 RMK A01 T02870167  RH  048%=      5-min Rain = 0
KWE1 151653Z 32004KT 29/17 A2998 RMK A01 T02860168  RH  049%=      5-min Rain = 0
KWE1 151654Z 32002KT 29/17 A2998 RMK A01 T02870167  RH  048%=      5-min Rain = 0
KWE1 151655Z 03001KT 29/17 A2998 RMK A01 T02870167  RH  048%=      5-min Rain = 0
KWE1 151656Z 09003KT 29/17 A2998 RMK A01 T02890170  RH  049%=      5-min Rain = 0
KWE1 151657Z 12005KT 29/17 A2998 RMK A01 T02930170  RH  048%=      5-min Rain = 0
KWE1 151658Z 12004KT 30/17 A2998 RMK A01 T02960170  RH  047%=      5-min Rain = 0
KWE1 151659Z 09005KT 30/17 A2998 RMK A01 T02960171  RH  047%=      5-min Rain = 0
KWE1 151700Z 11004KT 30/17 A2998 RMK A01 T02960170  RH  047%=      5-min Rain = 0
KWE1 151701Z 11004KT 30/17 A2998 RMK A01 T02950169  RH  047%=      5-min Rain = 0
KWE1 151702Z 14002KT 29/17 A2998 RMK A01 T02920168  RH  047%=      5-min Rain = 0
KWE1 151703Z 07001KT 29/17 A2998 RMK A01 T02890168  RH  048%=      5-min Rain = 0
KWE1 151704Z 10002KT 29/17 A2998 RMK A01 T02880168  RH  048%=      5-min Rain = 0
KWE1 151705Z 09006KT 29/17 A2998 RMK A01 T02890169  RH  048%=      5-min Rain = 0
KWE1 151706Z 05003KT 29/17 A2998 RMK A01 T02890169  RH  048%=      5-min Rain = 0
KWE1 151707Z 07001KT 29/17 A2998 RMK A01 T02870168  RH  049%=      5-min Rain = 0
KWE1 151708Z 09001KT 29/17 A2998 RMK A01 T02870169  RH  049%=      5-min Rain = 0
KWE1 151709Z 02001KT 29/17 A2998 RMK A01 T02870169  RH  049%=      5-min Rain = 0
KWE1 151710Z 34002KT 29/17 A2998 RMK A01 T02870169  RH  049%=      5-min Rain = 0
KWE1 151711Z 32003KT 29/17 A2998 RMK A01 T02870169  RH  049%=      5-min Rain = 0
KWE1 151712Z 33004KT 29/17 A2998 RMK A01 T02860170  RH  049%=      5-min Rain = 0
KWE1 151713Z 32003KT 29/17 A2998 RMK A01 T02860169  RH  049%=      5-min Rain = 0
KWE1 151714Z 33003KT 29/17 A2998 RMK A01 T02870169  RH  049%=      5-min Rain = 0
KWE1 151715Z 35002KT 29/17 A2998 RMK A01 T02870170  RH  049%=      5-min Rain = 0
KWE1 151716Z 29001KT 29/17 A2998 RMK A01 T02900172  RH  049%=      5-min Rain = 0
KWE1 151717Z 29002KT 29/17 A2998 RMK A01 T02930171  RH  048%=      5-min Rain = 0
KWE1 151718Z 27001KT 29/17 A2998 RMK A01 T02930169  RH  047%=      5-min Rain = 0
KWE1 151719Z 17002KT 29/17 A2998 RMK A01 T02920170  RH  048%=      5-min Rain = 0
KWE1 151720Z 16002KT 29/17 A2998 RMK A01 T02920169  RH  047%=      5-min Rain = 0
KWE1 151721Z 16003KT 29/17 A2998 RMK A01 T02930170  RH  047%=      5-min Rain = 0
KWE1 151722Z 17004KT 29/17 A2998 RMK A01 T02930169  RH  047%=      5-min Rain = 0
KWE1 151723Z 17002KT 29/17 A2998 RMK A01 T02910169  RH  048%=      5-min Rain = 0
KWE1 151724Z 20002KT 29/17 A2998 RMK A01 T02910169  RH  048%=      5-min Rain = 0
KWE1 151725Z 22001KT 29/17 A2998 RMK A01 T02920169  RH  048%=      5-min Rain = 0
KWE1 151726Z 11001KT 29/17 A2998 RMK A01 T02940172  RH  048%=      5-min Rain = 0
KWE1 151727Z 11003KT 30/17 A2998 RMK A01 T02970172  RH  047%=      5-min Rain = 0
KWE1 151728Z 11003KT 30/17 A2998 RMK A01 T02970171  RH  047%=      5-min Rain = 0
KWE1 151729Z 10002KT 29/17 A2998 RMK A01 T02940170  RH  047%=      5-min Rain = 0
KWE1 151730Z 16003KT 29/17 A2998 RMK A01 T02920171  RH  048%=      5-min Rain = 0
KWE1 151731Z 16005KT 29/17 A2998 RMK A01 T02940171  RH  047%=      5-min Rain = 0
KWE1 151732Z 14002KT 30/17 A2998 RMK A01 T02960170  RH  047%=      5-min Rain = 0
KWE1 151733Z 12004KT 30/17 A2998 RMK A01 T02960172  RH  047%=      5-min Rain = 0
KWE1 151734Z 13003KT 30/17 A2998 RMK A01 T03000172  RH  046%=      5-min Rain = 0
KWE1 151735Z 10005KT 30/17 A2998 RMK A01 T03040173  RH  046%=      5-min Rain = 0
KWE1 151736Z 10008KT 31/17 A2998 RMK A01 T03070174  RH  045%=      5-min Rain = 0
KWE1 151737Z 10004KT 31/17 A2997 RMK A01 T03070172  RH  044%=      5-min Rain = 0
KWE1 151738Z 13008KT 30/17 A2998 RMK A01 T03030172  RH  045%=      5-min Rain = 0
KWE1 151739Z 14009KT 30/17 A2997 RMK A01 T03040171  RH  045%=      5-min Rain = 0
KWE1 151740Z 12008KT 31/17 A2997 RMK A01 T03050172  RH  045%=      5-min Rain = 0
KWE1 151741Z 12005KT 31/17 A2998 RMK A01 T03090172  RH  044%=      5-min Rain = 0
KWE1 151742Z 16002KT 31/17 A2998 RMK A01 T03100172  RH  044%=      5-min Rain = 0
KWE1 151743Z 10001KT 31/18 A2998 RMK A01 T03120175  RH  044%=      5-min Rain = 0
KWE1 151744Z 11005KT 32/17 A2998 RMK A01 T03150173  RH  043%=      5-min Rain = 0
KWE1 151745Z 12006KT 31/17 A2998 RMK A01 T03130172  RH  043%=      5-min Rain = 0
KWE1 151746Z 11006KT 31/17 A2998 RMK A01 T03080170  RH  044%=      5-min Rain = 0
KWE1 151747Z 10006KT 31/17 A2997 RMK A01 T03050170  RH  044%=      5-min Rain = 0
KWE1 151748Z 10004KT 30/17 A2997 RMK A01 T03030169  RH  045%=      5-min Rain = 0
KWE1 151749Z 09003KT 30/17 A2997 RMK A01 T03000168  RH  045%=      5-min Rain = 0
KWE1 151750Z 13002KT 30/17 A2997 RMK A01 T02980169  RH  046%=      5-min Rain = 0
KWE1 151751Z 17003KT 30/17 A2997 RMK A01 T02980169  RH  046%=      5-min Rain = 0
KWE1 151752Z 17003KT 30/17 A2997 RMK A01 T02990169  RH  046%=      5-min Rain = 0
KWE1 151753Z 14005KT 30/17 A2997 RMK A01 T03010171  RH  046%=      5-min Rain = 0
KWE1 151754Z 13009KT 30/17 A2997 RMK A01 T03040171  RH  045%=      5-min Rain = 0
KWE1 151755Z 14011KT 31/17 A2996 RMK A01 T03070171  RH  044%=      5-min Rain = 0
KWE1 151756Z 12008KT 31/17 A2997 RMK A01 T03070170  RH  044%=      5-min Rain = 0
KWE1 151757Z 11006KT 31/17 A2996 RMK A01 T03050170  RH  044%=      5-min Rain = 0
KWE1 151758Z 12006KT 30/17 A2996 RMK A01 T03040171  RH  045%=      5-min Rain = 0
KWE1 151759Z 15007KT 31/17 A2996 RMK A01 T03050170  RH  045%=      5-min Rain = 0
KWE1 151800Z 15008KT 31/17 A2996 RMK A01 T03060170  RH  044%=      5-min Rain = 0
KWE1 151801Z 13006KT 31/17 A2996 RMK A01 T03080170  RH  044%=      5-min Rain = 0
KWE1 151802Z 14006KT 31/17 A2996 RMK A01 T03080171  RH  044%=      5-min Rain = 0
KWE1 151803Z 14010KT 31/17 A2996 RMK A01 T03100172  RH  044%=      5-min Rain = 0
KWE1 151804Z 11008KT 31/17 A2996 RMK A01 T03110171  RH  043%=      5-min Rain = 0
KWE1 151805Z 10006KT 31/17 A2996 RMK A01 T03100171  RH  044%=      5-min Rain = 0
KWE1 151806Z 10008KT 31/17 A2996 RMK A01 T03090173  RH  044%=      5-min Rain = 0
KWE1 151807Z 12007KT 31/17 A2996 RMK A01 T03120172  RH  043%=      5-min Rain = 0
KWE1 151808Z 11005KT 31/17 A2996 RMK A01 T03110172  RH  043%=      5-min Rain = 0
KWE1 151809Z 10006KT 31/17 A2996 RMK A01 T03100171  RH  043%=      5-min Rain = 0
KWE1 151810Z 08007KT 31/17 A2996 RMK A01 T03080171  RH  044%=      5-min Rain = 0
KWE1 151811Z 06005KT 31/17 A2996 RMK A01 T03080170  RH  044%=      5-min Rain = 0
KWE1 151812Z 09003KT 31/17 A2996 RMK A01 T03070169  RH  044%=      5-min Rain = 0
KWE1 151813Z 06004KT 30/17 A2996 RMK A01 T03040170  RH  045%=      5-min Rain = 0
KWE1 151814Z 04005KT 31/17 A2996 RMK A01 T03050169  RH  044%=      5-min Rain = 0
KWE1 151815Z 09007KT 30/17 A2996 RMK A01 T03040170  RH  044%=      5-min Rain = 0
KWE1 151816Z 09007KT 31/17 A2996 RMK A01 T03050169  RH  044%=      5-min Rain = 0
KWE1 151817Z 12006KT 30/17 A2996 RMK A01 T03040169  RH  044%=      5-min Rain = 0
KWE1 151818Z 13002KT 31/17 A2996 RMK A01 T03050168  RH  044%=      5-min Rain = 0
KWE1 151819Z 14005G10KT 31/17 A2996 RMK A01 T03060170  RH  044%=      5-min Rain = 0
KWE1 151820Z 10009KT 31/17 A2996 RMK A01 T03090170  RH  043%=      5-min Rain = 0
KWE1 151821Z 10007KT 31/17 A2996 RMK A01 T03100170  RH  043%=      5-min Rain = 0
KWE1 151822Z 10005KT 31/17 A2996 RMK A01 T03070169  RH  044%=      5-min Rain = 0
KWE1 151823Z 09007KT 31/17 A2996 RMK A01 T03070171  RH  044%=      5-min Rain = 0
KWE1 151824Z 10006KT 31/17 A2996 RMK A01 T03100173  RH  044%=      5-min Rain = 0
KWE1 151825Z 12004KT 31/17 A2996 RMK A01 T03080174  RH  045%=      5-min Rain = 0
KWE1 151826Z 08004KT 31/18 A2996 RMK A01 T03070175  RH  045%=      5-min Rain = 0
KWE1 151827Z 11006KT 31/18 A2995 RMK A01 T03090175  RH  045%=      5-min Rain = 0
KWE1 151828Z 17003KT 31/18 A2995 RMK A01 T03120175  RH  044%=      5-min Rain = 0
KWE1 151829Z 16004KT 31/18 A2995 RMK A01 T03130175  RH  044%=      5-min Rain = 0
KWE1 151830Z 15004KT 32/18 A2995 RMK A01 T03150176  RH  043%=      5-min Rain = 0
KWE1 151831Z 10005KT 32/18 A2995 RMK A01 T03180175  RH  042%=      5-min Rain = 0
KWE1 151832Z 12008KT 32/18 A2995 RMK A01 T03160178  RH  044%=      5-min Rain = 0
KWE1 151833Z 14010KT 32/18 A2995 RMK A01 T03160178  RH  044%=      5-min Rain = 0
KWE1 151834Z 12009KT 32/18 A2995 RMK A01 T03160177  RH  044%=      5-min Rain = 0
KWE1 151835Z 11006KT 31/18 A2995 RMK A01 T03140176  RH  044%=      5-min Rain = 0
KWE1 151836Z 11009G14KT 31/18 A2995 RMK A01 T03110178  RH  045%=      5-min Rain = 0
KWE1 151837Z 15009KT 32/18 A2995 RMK A01 T03160178  RH  044%=      5-min Rain = 0
KWE1 151838Z 16007KT 32/18 A2995 RMK A01 T03220179  RH  043%=      5-min Rain = 0
KWE1 151839Z 15003KT 32/18 A2995 RMK A01 T03210177  RH  042%=      5-min Rain = 0
KWE1 151840Z 12006KT 32/18 A2995 RMK A01 T03160179  RH  044%=      5-min Rain = 0
KWE1 151841Z 13010KT 32/18 A2995 RMK A01 T03190180  RH  043%=      5-min Rain = 0
KWE1 151842Z 13009KT 32/18 A2995 RMK A01 T03210178  RH  043%=      5-min Rain = 0
KWE1 151843Z 13010KT 32/18 A2995 RMK A01 T03220178  RH  042%=      5-min Rain = 0
KWE1 151844Z 12008KT 32/18 A2995 RMK A01 T03170176  RH  043%=      5-min Rain = 0
KWE1 151845Z 14007KT 31/18 A2995 RMK A01 T03130177  RH  044%=      5-min Rain = 0
KWE1 151846Z 12006KT 31/18 A2995 RMK A01 T03100176  RH  045%=      5-min Rain = 0
KWE1 151847Z 10010KT 31/18 A2995 RMK A01 T03100178  RH  045%=      5-min Rain = 0
KWE1 151848Z 11010KT 31/18 A2995 RMK A01 T03100177  RH  045%=      5-min Rain = 0
KWE1 151849Z 12010KT 31/18 A2995 RMK A01 T03110178  RH  045%=      5-min Rain = 0
KWE1 151850Z 10008KT 31/18 A2995 RMK A01 T03110176  RH  044%=      5-min Rain = 0
KWE1 151851Z 13010KT 31/18 A2995 RMK A01 T03090177  RH  045%=      5-min Rain = 0
KWE1 151852Z 14009KT 31/18 A2995 RMK A01 T03110177  RH  045%=      5-min Rain = 0
KWE1 151853Z 12011KT 31/18 A2995 RMK A01 T03120177  RH  045%=      5-min Rain = 0
KWE1 151854Z 13009KT 31/18 A2995 RMK A01 T03110178  RH  045%=      5-min Rain = 0
KWE1 151855Z 12009KT 31/18 A2995 RMK A01 T03110177  RH  045%=      5-min Rain = 0
KWE1 151856Z 10010KT 31/18 A2995 RMK A01 T03130178  RH  044%=      5-min Rain = 0
KWE1 151857Z 10008KT 31/18 A2995 RMK A01 T03140177  RH  044%=      5-min Rain = 0
KWE1 151858Z 11009KT 31/18 A2995 RMK A01 T03130177  RH  044%=      5-min Rain = 0
KWE1 151859Z 11009KT 31/18 A2995 RMK A01 T03120176  RH  044%=      5-min Rain = 0
KWE1 151900Z 11009KT 31/17 A2995 RMK A01 T03100174  RH  044%=      5-min Rain = 0
KWE1 151901Z 11008KT 31/18 A2995 RMK A01 T03070175  RH  045%=      5-min Rain = 0
KWE1 151902Z 10007KT 31/17 A2995 RMK A01 T03070174  RH  045%=      5-min Rain = 0
KWE1 151903Z 11007KT 31/17 A2995 RMK A01 T03070174  RH  045%=      5-min Rain = 0
KWE1 151904Z 10007KT 31/18 A2995 RMK A01 T03090175  RH  045%=      5-min Rain = 0
KWE1 151905Z 11008KT 31/18 A2995 RMK A01 T03110176  RH  044%=      5-min Rain = 0
KWE1 151906Z 10010KT 32/18 A2995 RMK A01 T03150176  RH  044%=      5-min Rain = 0
KWE1 151907Z 07005G10KT 32/17 A2995 RMK A01 T03150174  RH  043%=      5-min Rain = 0
KWE1 151908Z 07008KT 31/18 A2994 RMK A01 T03120175  RH  044%=      5-min Rain = 0
KWE1 151909Z 08008KT 31/17 A2995 RMK A01 T03130174  RH  044%=      5-min Rain = 0
KWE1 151910Z 10006KT 31/17 A2994 RMK A01 T03120174  RH  044%=      5-min Rain = 0
KWE1 151911Z 13006KT 31/18 A2994 RMK A01 T03130175  RH  044%=      5-min Rain = 0
KWE1 151912Z 19008KT 32/18 A2994 RMK A01 T03150175  RH  043%=      5-min Rain = 0
KWE1 151913Z 14008KT 32/18 A2994 RMK A01 T03170176  RH  043%=      5-min Rain = 0
KWE1 151914Z 12010KT 32/18 A2994 RMK A01 T03190177  RH  043%=      5-min Rain = 0
KWE1 151915Z 13009KT 32/18 A2994 RMK A01 T03210176  RH  042%=      5-min Rain = 0
KWE1 151916Z 13011KT 32/18 A2994 RMK A01 T03210176  RH  042%=      5-min Rain = 0
KWE1 151917Z 13011KT 32/18 A2994 RMK A01 T03210175  RH  042%=      5-min Rain = 0
KWE1 151918Z 13009KT 32/18 A2994 RMK A01 T03190175  RH  042%=      5-min Rain = 0
KWE1 151919Z 15006KT 32/17 A2995 RMK A01 T03160174  RH  043%=      5-min Rain = 0
KWE1 151920Z 15006KT 31/17 A2994 RMK A01 T03130173  RH  043%=      5-min Rain = 0
KWE1 151921Z 11008KT 31/17 A2995 RMK A01 T03130174  RH  043%=      5-min Rain = 0
KWE1 151922Z 11005KT 31/17 A2994 RMK A01 T03140173  RH  043%=      5-min Rain = 0
KWE1 151923Z 12010KT 32/17 A2994 RMK A01 T03150174  RH  043%=      5-min Rain = 0
KWE1 151924Z 12008KT 32/17 A2994 RMK A01 T03190173  RH  042%=      5-min Rain = 0
KWE1 151925Z 12007KT 32/17 A2994 RMK A01 T03190172  RH  041%=      5-min Rain = 0
KWE1 151926Z 13007G12KT 32/17 A2994 RMK A01 T03170172  RH  042%=      5-min Rain = 0
KWE1 151927Z 13009KT 32/17 A2994 RMK A01 T03180173  RH  042%=      5-min Rain = 0
KWE1 151928Z 10009KT 32/17 A2994 RMK A01 T03200174  RH  042%=      5-min Rain = 0
KWE1 151929Z 11009KT 32/17 A2994 RMK A01 T03200173  RH  042%=      5-min Rain = 0
KWE1 151930Z 10007KT 32/18 A2994 RMK A01 T03200175  RH  042%=      5-min Rain = 0
KWE1 151931Z 13006KT 32/17 A2994 RMK A01 T03240171  RH  040%=      5-min Rain = 0
KWE1 151932Z 08006KT 33/17 A2994 RMK A01 T03250172  RH  040%=      5-min Rain = 0
KWE1 151933Z 08005KT 32/17 A2994 RMK A01 T03200173  RH  042%=      5-min Rain = 0
KWE1 151934Z 07003KT 32/18 A2994 RMK A01 T03180175  RH  042%=      5-min Rain = 0
KWE1 151935Z 08003KT 31/17 A2994 RMK A01 T03140174  RH  043%=      5-min Rain = 0
KWE1 151936Z 10002KT 31/18 A2994 RMK A01 T03140176  RH  044%=      5-min Rain = 0
KWE1 151937Z 11006KT 32/18 A2994 RMK A01 T03190177  RH  043%=      5-min Rain = 0
KWE1 151938Z 12007KT 32/17 A2994 RMK A01 T03220174  RH  041%=      5-min Rain = 0
KWE1 151939Z 11006KT 32/17 A2994 RMK A01 T03200173  RH  042%=      5-min Rain = 0
KWE1 151940Z 14005KT 32/17 A2994 RMK A01 T03170172  RH  042%=      5-min Rain = 0
KWE1 151941Z 16004KT 32/18 A2994 RMK A01 T03160175  RH  043%=      5-min Rain = 0
KWE1 151942Z 16006KT 32/18 A2994 RMK A01 T03180177  RH  043%=      5-min Rain = 0
KWE1 151943Z 14006KT 32/18 A2994 RMK A01 T03200176  RH  042%=      5-min Rain = 0
KWE1 151944Z 14006KT 32/18 A2994 RMK A01 T03190177  RH  043%=      5-min Rain = 0
KWE1 151945Z 11009KT 32/18 A2994 RMK A01 T03200179  RH  043%=      5-min Rain = 0
KWE1 151946Z 12009KT 32/18 A2994 RMK A01 T03230177  RH  042%=      5-min Rain = 0
KWE1 151947Z 11008KT 32/18 A2994 RMK A01 T03220178  RH  042%=      5-min Rain = 0
KWE1 151948Z 13007KT 32/18 A2994 RMK A01 T03200178  RH  043%=      5-min Rain = 0
KWE1 151949Z 14004KT 32/18 A2994 RMK A01 T03200178  RH  043%=      5-min Rain = 0
KWE1 151950Z 10003KT 32/18 A2994 RMK A01 T03220178  RH  042%=      5-min Rain = 0
KWE1 151951Z 11008KT 32/18 A2994 RMK A01 T03230178  RH  042%=      5-min Rain = 0
KWE1 151952Z 09007KT 33/18 A2994 RMK A01 T03250176  RH  041%=      5-min Rain = 0
KWE1 151953Z 14004KT 32/18 A2994 RMK A01 T03230176  RH  042%=      5-min Rain = 0
KWE1 151954Z 13003KT 32/18 A2994 RMK A01 T03220175  RH  042%=      5-min Rain = 0
KWE1 151955Z 09007KT 32/18 A2994 RMK A01 T03230177  RH  042%=      5-min Rain = 0
KWE1 151956Z 09008KT 33/18 A2994 RMK A01 T03250175  RH  041%=      5-min Rain = 0
KWE1 151957Z 11006KT 32/17 A2994 RMK A01 T03220174  RH  041%=      5-min Rain = 0
KWE1 151958Z 07004KT 32/17 A2993 RMK A01 T03210173  RH  041%=      5-min Rain = 0
KWE1 151959Z 10002KT 32/17 A2993 RMK A01 T03180173  RH  042%=      5-min Rain = 0
KWE1 152000Z 12003KT 32/18 A2993 RMK A01 T03180175  RH  043%=      5-min Rain = 0
KWE1 152001Z 16005KT 32/18 A2993 RMK A01 T03200177  RH  043%=      5-min Rain = 0
KWE1 152002Z 18005KT 32/18 A2993 RMK A01 T03210177  RH  042%=      5-min Rain = 0
KWE1 152003Z 15003KT 32/18 A2993 RMK A01 T03210179  RH  043%=      5-min Rain = 0
KWE1 152004Z 10007KT 32/18 A2993 RMK A01 T03240179  RH  042%=      5-min Rain = 0
KWE1 152005Z 10005KT 33/18 A2993 RMK A01 T03250177  RH  041%=      5-min Rain = 0
KWE1 152006Z 09007KT 32/18 A2993 RMK A01 T03240177  RH  042%=      5-min Rain = 0
KWE1 152007Z 07004KT 32/18 A2993 RMK A01 T03230176  RH  042%=      5-min Rain = 0
KWE1 152008Z 04003KT 33/17 A2993 RMK A01 T03250173  RH  040%=      5-min Rain = 0
KWE1 152009Z 06004KT 33/18 A2993 RMK A01 T03260175  RH  041%=      5-min Rain = 0
KWE1 152010Z 08007G12KT 32/17 A2993 RMK A01 T03240174  RH  041%=      5-min Rain = 0
KWE1 152011Z 10010KT 32/18 A2993 RMK A01 T03230176  RH  042%=      5-min Rain = 0
KWE1 152012Z 11009KT 32/18 A2993 RMK A01 T03230178  RH  042%=      5-min Rain = 0
KWE1 152013Z 11009G14KT 33/18 A2993 RMK A01 T03250178  RH  042%=      5-min Rain = 0
KWE1 152014Z 09006KT 33/18 A2992 RMK A01 T03260179  RH  042%=      5-min Rain = 0
KWE1 152015Z 12005KT 33/18 A2992 RMK A01 T03280179  RH  041%=      5-min Rain = 0
KWE1 152016Z 17006KT 33/18 A2992 RMK A01 T03290179  RH  041%=      5-min Rain = 0
KWE1 152017Z 21004KT 33/18 A2992 RMK A01 T03270177  RH  041%=      5-min Rain = 0
KWE1 152018Z 23004KT 32/18 A2992 RMK A01 T03240177  RH  042%=      5-min Rain = 0
KWE1 152019Z 21002KT 32/18 A2992 RMK A01 T03240178  RH  042%=      5-min Rain = 0
KWE1 152020Z 10004G9KT 33/18 A2992 RMK A01 T03260179  RH  041%=      5-min Rain = 0
KWE1 152021Z 10006KT 33/18 A2992 RMK A01 T03290178  RH  041%=      5-min Rain = 0
KWE1 152022Z 12004KT 33/18 A2992 RMK A01 T03300177  RH  040%=      5-min Rain = 0
KWE1 152023Z 10005KT 33/18 A2992 RMK A01 T03270176  RH  041%=      5-min Rain = 0
KWE1 152024Z 10007KT 33/18 A2992 RMK A01 T03250178  RH  042%=      5-min Rain = 0
KWE1 152025Z 11009KT 32/18 A2992 RMK A01 T03230180  RH  043%=      5-min Rain = 0
KWE1 152026Z 13003KT 32/18 A2991 RMK A01 T03220180  RH  043%=      5-min Rain = 0
KWE1 152027Z 14001KT 32/18 A2991 RMK A01 T03210180  RH  043%=      5-min Rain = 0
KWE1 152028Z 08002KT 32/18 A2991 RMK A01 T03210180  RH  043%=      5-min Rain = 0
KWE1 152029Z 09003KT 32/18 A2991 RMK A01 T03190180  RH  043%=      5-min Rain = 0
KWE1 152030Z 12005G11KT 32/18 A2991 RMK A01 T03180180  RH  044%=      5-min Rain = 0
KWE1 152031Z 12008KT 32/18 A2991 RMK A01 T03210180  RH  043%=      5-min Rain = 0
KWE1 152032Z 13007KT 32/18 A2991 RMK A01 T03230179  RH  042%=      5-min Rain = 0
KWE1 152033Z 12008KT 32/18 A2991 RMK A01 T03230178  RH  042%=      5-min Rain = 0
KWE1 152034Z 09008KT 32/18 A2991 RMK A01 T03230178  RH  042%=      5-min Rain = 0
KWE1 152035Z 08005KT 33/18 A2991 RMK A01 T03250179  RH  042%=      5-min Rain = 0
KWE1 152036Z 05003KT 33/18 A2991 RMK A01 T03300179  RH  041%=      5-min Rain = 0
KWE1 152037Z 11003G10KT 33/18 A2991 RMK A01 T03300178  RH  040%=      5-min Rain = 0
KWE1 152038Z 13009KT 33/18 A2991 RMK A01 T03310179  RH  041%=      5-min Rain = 0
KWE1 152039Z 13010KT 33/18 A2991 RMK A01 T03310179  RH  040%=      5-min Rain = 0
KWE1 152040Z 13012KT 33/18 A299 RMK A01 T03330180  RH  040%=      5-min Rain = 0
KWE1 152041Z 12007KT 33/18 A299 RMK A01 T03330179  RH  040%=      5-min Rain = 0
KWE1 152042Z 12007G15KT 33/18 A299 RMK A01 T03280178  RH  041%=      5-min Rain = 0
KWE1 152043Z 14011KT 33/18 A299 RMK A01 T03250177  RH  041%=      5-min Rain = 0
KWE1 152044Z 13011KT 33/18 A299 RMK A01 T03260177  RH  041%=      5-min Rain = 0
KWE1 152045Z 13009KT 33/18 A299 RMK A01 T03290179  RH  041%=      5-min Rain = 0
KWE1 152046Z 13009KT 33/18 A299 RMK A01 T03330179  RH  040%=      5-min Rain = 0
KWE1 152047Z 13008KT 33/18 A299 RMK A01 T03320179  RH  040%=      5-min Rain = 0
KWE1 152048Z 18008KT 33/18 A299 RMK A01 T03290179  RH  041%=      5-min Rain = 0
KWE1 152049Z 19007KT 33/18 A299 RMK A01 T03290178  RH  041%=      5-min Rain = 0
KWE1 152050Z 18007G12KT 33/18 A299 RMK A01 T03280177  RH  041%=      5-min Rain = 0
KWE1 152051Z 18008KT 33/18 A299 RMK A01 T03300178  RH  041%=      5-min Rain = 0
KWE1 152052Z 19004KT 33/18 A299 RMK A01 T03340178  RH  040%=      5-min Rain = 0
KWE1 152053Z 16007KT 34/18 A299 RMK A01 T03380178  RH  039%=      5-min Rain = 0
KWE1 152054Z 18008KT 34/18 A299 RMK A01 T03400180  RH  039%=      5-min Rain = 0
KWE1 152055Z 20006KT 34/18 A299 RMK A01 T03400179  RH  039%=      5-min Rain = 0
KWE1 152056Z 16006KT 34/18 A299 RMK A01 T03400179  RH  039%=      5-min Rain = 0
KWE1 152057Z 14010KT 34/18 A299 RMK A01 T03400176  RH  038%=      5-min Rain = 0
KWE1 152058Z 17010KT 34/17 A299 RMK A01 T03410174  RH  037%=      5-min Rain = 0
KWE1 152059Z 18009KT 34/17 A299 RMK A01 T03370172  RH  037%=      5-min Rain = 0
KWE1 152100Z 17011KT 34/17 A299 RMK A01 T03370171  RH  037%=      5-min Rain = 0
KWE1 152101Z 17011KT 34/17 A299 RMK A01 T03390169  RH  036%=      5-min Rain = 0
KWE1 152102Z 16009KT 34/17 A299 RMK A01 T03410170  RH  036%=      5-min Rain = 0
KWE1 152103Z 17007KT 34/17 A299 RMK A01 T03400171  RH  036%=      5-min Rain = 0
KWE1 152104Z 15004KT 34/17 A2989 RMK A01 T03380170  RH  037%=      5-min Rain = 0
KWE1 152105Z 22004KT 34/17 A2989 RMK A01 T03370170  RH  037%=      5-min Rain = 0
KWE1 152106Z 20003KT 34/17 A2989 RMK A01 T03370167  RH  036%=      5-min Rain = 0
KWE1 152107Z 14007KT 33/17 A2989 RMK A01 T03340166  RH  037%=      5-min Rain = 0
KWE1 152108Z 13011KT 33/17 A2989 RMK A01 T03330165  RH  037%=      5-min Rain = 0
KWE1 152109Z 15012KT 33/17 A2989 RMK A01 T03320168  RH  038%=      5-min Rain = 0
KWE1 152110Z 15010KT 33/17 A2989 RMK A01 T03300170  RH  039%=      5-min Rain = 0
KWE1 152111Z 16008KT 33/17 A2989 RMK A01 T03300172  RH  039%=      5-min Rain = 0
KWE1 152112Z 18007KT 33/17 A2989 RMK A01 T03310173  RH  039%=      5-min Rain = 0
KWE1 152113Z 14006KT 33/17 A2989 RMK A01 T03340172  RH  038%=      5-min Rain = 0
KWE1 152114Z 14007KT 34/17 A2989 RMK A01 T03350170  RH  037%=      5-min Rain = 0
KWE1 152115Z 13006KT 33/17 A2989 RMK A01 T03330171  RH  038%=      5-min Rain = 0
KWE1 152116Z 13004KT 33/17 A2988 RMK A01 T03320171  RH  038%=      5-min Rain = 0
KWE1 152117Z 14002KT 33/17 A2988 RMK A01 T03280171  RH  039%=      5-min Rain = 0
KWE1 152118Z 16005KT 33/17 A2988 RMK A01 T03270171  RH  039%=      5-min Rain = 0
KWE1 152119Z 14011G16KT 33/17 A2988 RMK A01 T03250170  RH  040%=      5-min Rain = 0
KWE1 152120Z 13008KT 33/17 A2988 RMK A01 T03250169  RH  039%=      5-min Rain = 0
KWE1 152121Z 13009KT 33/17 A2988 RMK A01 T03260166  RH  038%=      5-min Rain = 0
KWE1 152122Z 13006KT 33/16 A2988 RMK A01 T03260164  RH  038%=      5-min Rain = 0
KWE1 152123Z 13005KT 33/17 A2988 RMK A01 T03270167  RH  038%=      5-min Rain = 0
KWE1 152124Z 12005KT 33/17 A2988 RMK A01 T03270170  RH  039%=      5-min Rain = 0
KWE1 152125Z 12005KT 33/17 A2988 RMK A01 T03250170  RH  040%=      5-min Rain = 0
KWE1 152126Z 07004KT 32/17 A2988 RMK A01 T03240171  RH  040%=      5-min Rain = 0
KWE1 152127Z 13003KT 32/17 A2988 RMK A01 T03220170  RH  040%=      5-min Rain = 0
KWE1 152128Z 13006KT 32/17 A2988 RMK A01 T03230172  RH  040%=      5-min Rain = 0
KWE1 152129Z 11006KT 33/17 A2988 RMK A01 T03290171  RH  039%=      5-min Rain = 0
KWE1 152130Z 10007KT 33/17 A2987 RMK A01 T03330174  RH  039%=      5-min Rain = 0
KWE1 152131Z 10009KT 34/17 A2987 RMK A01 T03370173  RH  038%=      5-min Rain = 0
KWE1 152132Z 12012KT 34/17 A2987 RMK A01 T03370174  RH  038%=      5-min Rain = 0
KWE1 152133Z 13009KT 34/17 A2987 RMK A01 T03350174  RH  038%=      5-min Rain = 0
KWE1 152134Z 14010KT 34/17 A2987 RMK A01 T03350174  RH  038%=      5-min Rain = 0
KWE1 152135Z 14008KT 34/17 A2987 RMK A01 T03350173  RH  038%=      5-min Rain = 0
KWE1 152136Z 12006KT 33/17 A2987 RMK A01 T03340172  RH  038%=      5-min Rain = 0
KWE1 152137Z 11003KT 33/17 A2987 RMK A01 T03330171  RH  038%=      5-min Rain = 0
KWE1 152138Z 11009KT 33/17 A2987 RMK A01 T03320171  RH  038%=      5-min Rain = 0
KWE1 152139Z 11009KT 33/17 A2987 RMK A01 T03330168  RH  037%=      5-min Rain = 0
KWE1 152140Z 10008KT 33/17 A2987 RMK A01 T03330167  RH  037%=      5-min Rain = 0
KWE1 152141Z 10006KT 33/17 A2987 RMK A01 T03330167  RH  037%=      5-min Rain = 0
KWE1 152142Z 10007KT 33/17 A2987 RMK A01 T03320167  RH  037%=      5-min Rain = 0
KWE1 152143Z 09008KT 33/17 A2987 RMK A01 T03320165  RH  037%=      5-min Rain = 0
KWE1 152144Z 09006KT 33/17 A2987 RMK A01 T03280165  RH  037%=      5-min Rain = 0
KWE1 152145Z 09004KT 33/16 A2987 RMK A01 T03250164  RH  038%=      5-min Rain = 0
KWE1 152146Z 10005KT 32/17 A2987 RMK A01 T03230165  RH  039%=      5-min Rain = 0
KWE1 152147Z 12006KT 32/17 A2987 RMK A01 T03210165  RH  039%=      5-min Rain = 0
KWE1 152148Z 12007KT 32/17 A2986 RMK A01 T03210166  RH  040%=      5-min Rain = 0
KWE1 152149Z 13006KT 32/17 A2986 RMK A01 T03210169  RH  040%=      5-min Rain = 0
KWE1 152150Z 16008KT 32/17 A2986 RMK A01 T03220171  RH  040%=      5-min Rain = 0
KWE1 152151Z 15007KT 33/17 A2986 RMK A01 T03270172  RH  040%=      5-min Rain = 0
KWE1 152152Z 14010KT 33/17 A2986 RMK A01 T03330172  RH  038%=      5-min Rain = 0
KWE1 152153Z 15011KT 34/17 A2986 RMK A01 T03360171  RH  038%=      5-min Rain = 0
KWE1 152154Z 15006KT 34/17 A2986 RMK A01 T03360171  RH  037%=      5-min Rain = 0
KWE1 152155Z 16005KT 33/17 A2986 RMK A01 T03340171  RH  038%=      5-min Rain = 0
KWE1 152156Z 15005KT 33/17 A2986 RMK A01 T03330169  RH  038%=      5-min Rain = 0
KWE1 152157Z 15005KT 33/17 A2986 RMK A01 T03330168  RH  037%=      5-min Rain = 0
KWE1 152158Z 10009KT 34/17 A2986 RMK A01 T03350168  RH  037%=      5-min Rain = 0
KWE1 152159Z 09004KT 34/17 A2986 RMK A01 T03360167  RH  036%=      5-min Rain = 0
KWE1 152200Z 09005KT 34/17 A2986 RMK A01 T03350168  RH  037%=      5-min Rain = 0
KWE1 152201Z 12006KT 33/17 A2986 RMK A01 T03340166  RH  037%=      5-min Rain = 0
KWE1 152202Z 12008KT 33/17 A2987 RMK A01 T03320167  RH  037%=      5-min Rain = 0
KWE1 152203Z 11009KT 33/17 A2987 RMK A01 T03300167  RH  038%=      5-min Rain = 0
KWE1 152204Z 11006KT 33/17 A2987 RMK A01 T03280166  RH  038%=      5-min Rain = 0
KWE1 152205Z 10005KT 33/17 A2987 RMK A01 T03250166  RH  039%=      5-min Rain = 0
KWE1 152206Z 10008KT 32/17 A2987 RMK A01 T03230166  RH  039%=      5-min Rain = 0
KWE1 152207Z 11008KT 32/17 A2987 RMK A01 T03230166  RH  039%=      5-min Rain = 0
KWE1 152208Z 11009KT 32/17 A2987 RMK A01 T03240166  RH  039%=      5-min Rain = 0
KWE1 152209Z 10006KT 32/17 A2986 RMK A01 T03230165  RH  039%=      5-min Rain = 0
KWE1 152210Z 09003KT 32/16 A2986 RMK A01 T03240164  RH  038%=      5-min Rain = 0
KWE1 152211Z 09002KT 32/17 A2986 RMK A01 T03240166  RH  039%=      5-min Rain = 0
KWE1 152212Z 12004KT 33/17 A2986 RMK A01 T03270165  RH  038%=      5-min Rain = 0
KWE1 152213Z 13006KT 33/17 A2986 RMK A01 T03300165  RH  037%=      5-min Rain = 0
KWE1 152214Z 12007KT 33/17 A2986 RMK A01 T03330166  RH  037%=      5-min Rain = 0
KWE1 152215Z 10007KT 33/17 A2986 RMK A01 T03340166  RH  037%=      5-min Rain = 0
KWE1 152216Z 08008KT 34/16 A2986 RMK A01 T03360163  RH  036%=      5-min Rain = 0
KWE1 152217Z 09006KT 34/16 A2986 RMK A01 T03360162  RH  035%=      5-min Rain = 0
KWE1 152218Z 11007G14KT 34/16 A2986 RMK A01 T03370163  RH  035%=      5-min Rain = 0
KWE1 152219Z 17010G15KT 34/16 A2986 RMK A01 T03400161  RH  034%=      5-min Rain = 0
KWE1 152220Z 17009KT 34/16 A2986 RMK A01 T03410158  RH  034%=      5-min Rain = 0
KWE1 152221Z 18007KT 34/16 A2986 RMK A01 T03400157  RH  033%=      5-min Rain = 0
KWE1 152222Z 22007KT 34/16 A2986 RMK A01 T03390156  RH  034%=      5-min Rain = 0
KWE1 152223Z 22005KT 34/16 A2986 RMK A01 T03370160  RH  035%=      5-min Rain = 0
KWE1 152224Z 17004KT 34/16 A2986 RMK A01 T03380161  RH  035%=      5-min Rain = 0
KWE1 152225Z 11004KT 34/16 A2986 RMK A01 T03400162  RH  035%=      5-min Rain = 0
KWE1 152226Z 16006KT 34/16 A2986 RMK A01 T03430164  RH  034%=      5-min Rain = 0
KWE1 152227Z 18008KT 35/16 A2986 RMK A01 T03450160  RH  033%=      5-min Rain = 0
KWE1 152228Z 15008KT 34/16 A2986 RMK A01 T03440159  RH  033%=      5-min Rain = 0
KWE1 152229Z 13007KT 34/16 A2987 RMK A01 T03430162  RH  034%=      5-min Rain = 0
KWE1 152230Z 15005KT 34/16 A2987 RMK A01 T03400162  RH  035%=      5-min Rain = 0
KWE1 152231Z 15006KT 34/16 A2986 RMK A01 T03390162  RH  035%=      5-min Rain = 0
KWE1 152232Z 13007KT 34/16 A2987 RMK A01 T03380161  RH  035%=      5-min Rain = 0
KWE1 152233Z 12008KT 34/16 A2987 RMK A01 T03380160  RH  034%=      5-min Rain = 0
KWE1 152234Z 10007KT 34/16 A2987 RMK A01 T03380159  RH  034%=      5-min Rain = 0
KWE1 152235Z 10006KT 34/16 A2987 RMK A01 T03380160  RH  034%=      5-min Rain = 0
KWE1 152236Z 10006KT 34/16 A2987 RMK A01 T03400160  RH  034%=      5-min Rain = 0
KWE1 152237Z 13008KT 34/16 A2987 RMK A01 T03390161  RH  035%=      5-min Rain = 0
KWE1 152238Z 17009KT 34/16 A2987 RMK A01 T03390163  RH  035%=      5-min Rain = 0
KWE1 152239Z 16007G13KT 34/16 A2987 RMK A01 T03410163  RH  035%=      5-min Rain = 0
KWE1 152240Z 17007KT 34/16 A2987 RMK A01 T03400164  RH  035%=      5-min Rain = 0
KWE1 152241Z 20007KT 34/16 A2986 RMK A01 T03390163  RH  035%=      5-min Rain = 0
KWE1 152242Z 20006KT 34/16 A2986 RMK A01 T03380163  RH  035%=      5-min Rain = 0
KWE1 152243Z 17004KT 33/16 A2986 RMK A01 T03340161  RH  036%=      5-min Rain = 0
KWE1 152244Z 13006KT 33/16 A2986 RMK A01 T03310162  RH  036%=      5-min Rain = 0
KWE1 152245Z 11006KT 33/16 A2986 RMK A01 T03310161  RH  036%=      5-min Rain = 0
KWE1 152246Z 11007KT 33/16 A2986 RMK A01 T03300162  RH  037%=      5-min Rain = 0
KWE1 152247Z 12007KT 33/16 A2986 RMK A01 T03300163  RH  037%=      5-min Rain = 0
KWE1 152248Z 14011KT 33/16 A2986 RMK A01 T03310164  RH  037%=      5-min Rain = 0
KWE1 152249Z 14010KT 33/17 A2986 RMK A01 T03310165  RH  037%=      5-min Rain = 0
KWE1 152250Z 14008KT 33/17 A2986 RMK A01 T03310165  RH  037%=      5-min Rain = 0
KWE1 152251Z 14008KT 33/17 A2986 RMK A01 T03310165  RH  037%=      5-min Rain = 0
KWE1 152252Z 13007KT 33/17 A2986 RMK A01 T03320165  RH  037%=      5-min Rain = 0
KWE1 152253Z 15007KT 33/17 A2986 RMK A01 T03320165  RH  037%=      5-min Rain = 0
KWE1 152254Z 14008KT 33/17 A2986 RMK A01 T03330165  RH  037%=      5-min Rain = 0
KWE1 152255Z 14007KT 33/17 A2986 RMK A01 T03320166  RH  037%=      5-min Rain = 0
KWE1 152256Z 14006KT 33/17 A2986 RMK A01 T03310166  RH  037%=      5-min Rain = 0
KWE1 152257Z 13005KT 33/17 A2986 RMK A01 T03310167  RH  037%=      5-min Rain = 0
KWE1 152258Z 11010G15KT 33/17 A2986 RMK A01 T03310167  RH  038%=      5-min Rain = 0
KWE1 152259Z 12012KT 33/17 A2986 RMK A01 T03290168  RH  038%=      5-min Rain = 0
KWE1 152300Z 11009KT 33/17 A2986 RMK A01 T03260167  RH  039%=      5-min Rain = 0
KWE1 152301Z 11008KT 33/17 A2986 RMK A01 T03250168  RH  039%=      5-min Rain = 0
KWE1 152302Z 12007KT 33/17 A2986 RMK A01 T03250168  RH  039%=      5-min Rain = 0
KWE1 152303Z 13007KT 32/17 A2986 RMK A01 T03240168  RH  039%=      5-min Rain = 0
KWE1 152304Z 12007KT 33/17 A2986 RMK A01 T03250168  RH  039%=      5-min Rain = 0
KWE1 152305Z 12005KT 33/17 A2986 RMK A01 T03250168  RH  039%=      5-min Rain = 0
KWE1 152306Z 12005KT 32/17 A2986 RMK A01 T03240169  RH  040%=      5-min Rain = 0
KWE1 152307Z 13005KT 32/17 A2986 RMK A01 T03230169  RH  040%=      5-min Rain = 0
KWE1 152308Z 11004KT 32/17 A2986 RMK A01 T03240169  RH  039%=      5-min Rain = 0
KWE1 152309Z 11005KT 32/17 A2986 RMK A01 T03240169  RH  039%=      5-min Rain = 0
KWE1 152310Z 11007G12KT 32/17 A2986 RMK A01 T03240170  RH  040%=      5-min Rain = 0
KWE1 152311Z 12011KT 33/17 A2986 RMK A01 T03250171  RH  040%=      5-min Rain = 0
KWE1 152312Z 12008KT 33/17 A2986 RMK A01 T03250171  RH  040%=      5-min Rain = 0
KWE1 152313Z 11008KT 33/17 A2986 RMK A01 T03250171  RH  040%=      5-min Rain = 0
KWE1 152314Z 12008KT 32/17 A2986 RMK A01 T03240172  RH  040%=      5-min Rain = 0
KWE1 152315Z 10007KT 32/17 A2986 RMK A01 T03240171  RH  040%=      5-min Rain = 0
KWE1 152316Z 12008KT 32/17 A2986 RMK A01 T03240171  RH  040%=      5-min Rain = 0
KWE1 152317Z 13009KT 33/17 A2986 RMK A01 T03250171  RH  040%=      5-min Rain = 0
KWE1 152318Z 14011KT 33/17 A2986 RMK A01 T03260171  RH  040%=      5-min Rain = 0
KWE1 152319Z 14010KT 33/17 A2986 RMK A01 T03260172  RH  040%=      5-min Rain = 0
KWE1 152320Z 14009KT 33/17 A2986 RMK A01 T03260172  RH  040%=      5-min Rain = 0
KWE1 152321Z 14008KT 33/17 A2986 RMK A01 T03250171  RH  040%=      5-min Rain = 0
KWE1 152322Z 13007KT 33/17 A2986 RMK A01 T03250171  RH  040%=      5-min Rain = 0
KWE1 152323Z 12007KT 33/17 A2986 RMK A01 T03250172  RH  040%=      5-min Rain = 0
KWE1 152324Z 12009KT 33/17 A2986 RMK A01 T03250171  RH  040%=      5-min Rain = 0
KWE1 152325Z 12011KT 33/17 A2986 RMK A01 T03250173  RH  040%=      5-min Rain = 0
KWE1 152326Z 12010KT 32/17 A2986 RMK A01 T03240173  RH  041%=      5-min Rain = 0
KWE1 152327Z 12010KT 32/17 A2986 RMK A01 T03230173  RH  041%=      5-min Rain = 0
KWE1 152328Z 12010KT 32/17 A2986 RMK A01 T03230174  RH  041%=      5-min Rain = 0
KWE1 152329Z 13010KT 32/17 A2986 RMK A01 T03230174  RH  041%=      5-min Rain = 0
KWE1 152330Z 13009KT 32/17 A2985 RMK A01 T03230174  RH  041%=      5-min Rain = 0
KWE1 152331Z 12008KT 32/17 A2985 RMK A01 T03230174  RH  041%=      5-min Rain = 0
KWE1 152332Z 11007KT 32/18 A2986 RMK A01 T03220175  RH  041%=      5-min Rain = 0
KWE1 152333Z 13009KT 32/17 A2986 RMK A01 T03230174  RH  041%=      5-min Rain = 0
KWE1 152334Z 14011KT 32/17 A2986 RMK A01 T03230173  RH  041%=      5-min Rain = 0
KWE1 152335Z 14010KT 32/17 A2986 RMK A01 T03230173  RH  041%=      5-min Rain = 0
KWE1 152336Z 15009KT 32/17 A2986 RMK A01 T03230173  RH  041%=      5-min Rain = 0
KWE1 152337Z 15010KT 32/17 A2986 RMK A01 T03230174  RH  041%=      5-min Rain = 0
KWE1 152338Z 15008KT 32/18 A2986 RMK A01 T03230175  RH  041%=      5-min Rain = 0
KWE1 152339Z 13010KT 32/17 A2986 RMK A01 T03230174  RH  041%=      5-min Rain = 0
KWE1 152340Z 12008KT 32/17 A2986 RMK A01 T03230174  RH  041%=      5-min Rain = 0
KWE1 152341Z 11007KT 32/18 A2986 RMK A01 T03230176  RH  041%=      5-min Rain = 0
KWE1 152342Z 10009KT 32/18 A2986 RMK A01 T03220176  RH  042%=      5-min Rain = 0
KWE1 152343Z 11008KT 32/18 A2985 RMK A01 T03210177  RH  042%=      5-min Rain = 0
KWE1 152344Z 10007KT 32/18 A2985 RMK A01 T03200177  RH  043%=      5-min Rain = 0
KWE1 152345Z 12008KT 32/18 A2985 RMK A01 T03200178  RH  043%=      5-min Rain = 0
KWE1 152346Z 13007KT 32/18 A2985 RMK A01 T03200178  RH  043%=      5-min Rain = 0
KWE1 152347Z 14009KT 32/17 A2985 RMK A01 T03200174  RH  042%=      5-min Rain = 0
KWE1 152348Z 14010KT 32/17 A2985 RMK A01 T03210173  RH  041%=      5-min Rain = 0
KWE1 152349Z 15010KT 32/17 A2985 RMK A01 T03220173  RH  041%=      5-min Rain = 0
KWE1 152350Z 13009KT 32/17 A2985 RMK A01 T03220174  RH  041%=      5-min Rain = 0
KWE1 152351Z 12011KT 32/18 A2985 RMK A01 T03220175  RH  042%=      5-min Rain = 0
KWE1 152352Z 13011KT 32/18 A2985 RMK A01 T03210176  RH  042%=      5-min Rain = 0
KWE1 152353Z 12018G26KT 32/18 A2986 RMK A01 T03200177  RH  043%=      5-min Rain = 0
KWE1 152354Z 13021KT 32/18 A2986 RMK A01 T03150184  RH  046%=      5-min Rain = 0
KWE1 152355Z 13023KT 31/19 A2985 RMK A01 T03080185  RH  048%=      5-min Rain = 0
KWE1 152356Z 13022G27KT 30/19 A2986 RMK A01 T03040185  RH  049%=      5-min Rain = 0
KWE1 152357Z 13020G25KT 30/18 A2986 RMK A01 T03010184  RH  050%=      5-min Rain = 0
KWE1 152358Z 13020KT 30/18 A2986 RMK A01 T03000184  RH  050%=      5-min Rain = 0
KWE1 152359Z 13020KT 30/18 A2986 RMK A01 T02990184  RH  050%=      5-min Rain = 0
KWE1 160000Z 14018G25KT 30/18 A2986 RMK A01 T02980183  RH  050%=      5-min Rain = 0
KWE1 160001Z 14019G24KT 30/18 A2986 RMK A01 T02970179  RH  049%=      5-min Rain = 0
KWE1 160002Z 14016KT 30/18 A2986 RMK A01 T02970176  RH  048%=      5-min Rain = 0
KWE1 160003Z 14018KT 30/18 A2986 RMK A01 T02970176  RH  048%=      5-min Rain = 0
KWE1 160004Z 14017KT 30/18 A2986 RMK A01 T02960176  RH  049%=      5-min Rain = 0
KWE1 160005Z 13020KT 30/18 A2986 RMK A01 T02950177  RH  049%=      5-min Rain = 0
KWE1 160006Z 14019G24KT 29/18 A2986 RMK A01 T02930177  RH  050%=      5-min Rain = 0
KWE1 160007Z 14021G27KT 29/18 A2986 RMK A01 T02920177  RH  050%=      5-min Rain = 0
KWE1 160008Z 14021G26KT 29/18 A2986 RMK A01 T02920177  RH  050%=      5-min Rain = 0
KWE1 160009Z 14020KT 29/18 A2986 RMK A01 T02900176  RH  050%=      5-min Rain = 0
KWE1 160010Z 14018KT 29/18 A2986 RMK A01 T02890175  RH  050%=      5-min Rain = 0
KWE1 160011Z 15018KT 29/18 A2986 RMK A01 T02880175  RH  050%=      5-min Rain = 0
KWE1 160012Z 14018G25KT 29/17 A2986 RMK A01 T02880173  RH  050%=      5-min Rain = 0
KWE1 160013Z 15021KT 29/17 A2985 RMK A01 T02880172  RH  049%=      5-min Rain = 0
KWE1 160014Z 14021KT 29/17 A2985 RMK A01 T02860171  RH  050%=      5-min Rain = 0
KWE1 160015Z 14019G24KT 29/17 A2985 RMK A01 T02850171  RH  050%=      5-min Rain = 0
KWE1 160016Z 15022KT 29/17 A2985 RMK A01 T02850171  RH  050%=      5-min Rain = 0
KWE1 160017Z 15020G26KT 28/17 A2985 RMK A01 T02840171  RH  050%=      5-min Rain = 0
KWE1 160018Z 14020KT 28/17 A2985 RMK A01 T02830171  RH  051%=      5-min Rain = 0
KWE1 160019Z 14019KT 28/17 A2985 RMK A01 T02820171  RH  051%=      5-min Rain = 0
KWE1 160020Z 14019KT 28/17 A2985 RMK A01 T02820171  RH  051%=      5-min Rain = 0
KWE1 160021Z 14016G22KT 28/17 A2985 RMK A01 T02810170  RH  051%=      5-min Rain = 0
KWE1 160022Z 14015G21KT 28/17 A2985 RMK A01 T02810170  RH  051%=      5-min Rain = 0
KWE1 160023Z 14015KT 28/17 A2985 RMK A01 T02820170  RH  051%=      5-min Rain = 0
KWE1 160024Z 14019KT 28/17 A2985 RMK A01 T02820171  RH  051%=      5-min Rain = 0
KWE1 160025Z 14018G23KT 28/17 A2986 RMK A01 T02810171  RH  051%=      5-min Rain = 0
KWE1 160026Z 14017KT 28/17 A2986 RMK A01 T02810171  RH  051%=      5-min Rain = 0
KWE1 160027Z 14018KT 28/17 A2986 RMK A01 T02800171  RH  051%=      5-min Rain = 0
KWE1 160028Z 15015KT 28/17 A2986 RMK A01 T02800171  RH  052%=      5-min Rain = 0
KWE1 160029Z 15016KT 28/17 A2986 RMK A01 T02800171  RH  052%=      5-min Rain = 0
KWE1 160030Z 14018KT 28/17 A2986 RMK A01 T02800171  RH  052%=      5-min Rain = 0
KWE1 160031Z 15015G21KT 28/17 A2986 RMK A01 T02790171  RH  052%=      5-min Rain = 0
KWE1 160032Z 15020KT 28/17 A2986 RMK A01 T02790171  RH  052%=      5-min Rain = 0
KWE1 160033Z 15019KT 28/17 A2986 RMK A01 T02790172  RH  052%=      5-min Rain = 0
KWE1 160034Z 15016KT 28/17 A2986 RMK A01 T02780172  RH  052%=      5-min Rain = 0
KWE1 160035Z 14019KT 28/17 A2986 RMK A01 T02780172  RH  052%=      5-min Rain = 0
KWE1 160036Z 14018KT 28/17 A2986 RMK A01 T02770172  RH  053%=      5-min Rain = 0
KWE1 160037Z 14015KT 28/17 A2986 RMK A01 T02770172  RH  053%=      5-min Rain = 0
KWE1 160038Z 14017KT 28/17 A2986 RMK A01 T02770172  RH  053%=      5-min Rain = 0
KWE1 160039Z 14019KT 28/17 A2986 RMK A01 T02770172  RH  053%=      5-min Rain = 0
KWE1 160040Z 15018KT 28/17 A2986 RMK A01 T02760173  RH  053%=      5-min Rain = 0
KWE1 160041Z 15019G24KT 28/17 A2986 RMK A01 T02760173  RH  053%=      5-min Rain = 0
KWE1 160042Z 15019KT 28/17 A2986 RMK A01 T02750173  RH  054%=      5-min Rain = 0
KWE1 160043Z 14016KT 28/17 A2986 RMK A01 T02750173  RH  054%=      5-min Rain = 0
KWE1 160044Z 15018KT 28/17 A2986 RMK A01 T02750173  RH  054%=      5-min Rain = 0
KWE1 160045Z 15019G24KT 27/17 A2987 RMK A01 T02740174  RH  054%=      5-min Rain = 0
KWE1 160046Z 14018KT 27/17 A2987 RMK A01 T02740174  RH  054%=      5-min Rain = 0
KWE1 160047Z 14016KT 27/17 A2987 RMK A01 T02730174  RH  055%=      5-min Rain = 0
KWE1 160048Z 15013KT 27/18 A2987 RMK A01 T02730175  RH  055%=      5-min Rain = 0
KWE1 160049Z 14016KT 27/18 A2987 RMK A01 T02720176  RH  055%=      5-min Rain = 0
KWE1 160050Z 14016KT 27/18 A2987 RMK A01 T02720176  RH  055%=      5-min Rain = 0
KWE1 160051Z 14014KT 27/18 A2987 RMK A01 T02720176  RH  056%=      5-min Rain = 0
KWE1 160052Z 15014KT 27/18 A2987 RMK A01 T02720178  RH  056%=      5-min Rain = 0
KWE1 160053Z 15016KT 27/18 A2987 RMK A01 T02710178  RH  057%=      5-min Rain = 0
KWE1 160054Z 15017KT 27/18 A2987 RMK A01 T02700179  RH  058%=      5-min Rain = 0
KWE1 160055Z 15016KT 27/18 A2987 RMK A01 T02680180  RH  058%=      5-min Rain = 0
KWE1 160056Z 15015KT 27/18 A2988 RMK A01 T02670182  RH  060%=      5-min Rain = 0
KWE1 160057Z 16012KT 27/19 A2988 RMK A01 T02650185  RH  061%=      5-min Rain = 0
KWE1 160058Z 16013KT 26/19 A2988 RMK A01 T02630188  RH  063%=      5-min Rain = 0
KWE1 160059Z 17015KT 26/19 A2988 RMK A01 T02610188  RH  064%=      5-min Rain = 0
KWE1 160100Z 17012KT 26/19 A2988 RMK A01 T02590191  RH  066%=      5-min Rain = 0
KWE1 160101Z 18013KT 26/20 A2988 RMK A01 T02560197  RH  070%=      5-min Rain = 0
KWE1 160102Z 17013KT 25/20 A2988 RMK A01 T02520197  RH  072%=      5-min Rain = 0
KWE1 160103Z 17014KT 25/20 A2988 RMK A01 T02490195  RH  072%=      5-min Rain = 0
KWE1 160104Z 16015KT 25/19 A2988 RMK A01 T02470193  RH  072%=      5-min Rain = 0
KWE1 160105Z 15014KT 25/19 A2988 RMK A01 T02450192  RH  072%=      5-min Rain = 0
KWE1 160106Z 15016KT 24/19 A2988 RMK A01 T02440190  RH  072%=      5-min Rain = 0
KWE1 160107Z 15013KT 24/19 A2988 RMK A01 T02430186  RH  071%=      5-min Rain = 0
KWE1 160108Z 15012KT 24/19 A2988 RMK A01 T02430187  RH  071%=      5-min Rain = 0
KWE1 160109Z 14012KT 24/19 A2988 RMK A01 T02430188  RH  071%=      5-min Rain = 0
KWE1 160110Z 15016KT 24/19 A2988 RMK A01 T02420187  RH  071%=      5-min Rain = 0
KWE1 160111Z 14013KT 24/19 A2988 RMK A01 T02420186  RH  071%=      5-min Rain = 0
KWE1 160112Z 14015KT 24/19 A2988 RMK A01 T02430186  RH  071%=      5-min Rain = 0
KWE1 160113Z 14015KT 24/18 A2988 RMK A01 T02430184  RH  070%=      5-min Rain = 0
KWE1 160114Z 14015KT 24/18 A2988 RMK A01 T02440184  RH  069%=      5-min Rain = 0
KWE1 160115Z 14015KT 24/18 A2988 RMK A01 T02440183  RH  069%=      5-min Rain = 0
KWE1 160116Z 13015KT 25/18 A2989 RMK A01 T02450183  RH  068%=      5-min Rain = 0
KWE1 160117Z 14016KT 25/18 A2989 RMK A01 T02460183  RH  068%=      5-min Rain = 0
KWE1 160118Z 14015KT 25/18 A2989 RMK A01 T02470182  RH  067%=      5-min Rain = 0
KWE1 160119Z 14015KT 25/18 A2989 RMK A01 T02470182  RH  067%=      5-min Rain = 0
KWE1 160120Z 16015KT 25/18 A2989 RMK A01 T02480183  RH  067%=      5-min Rain = 0
KWE1 160121Z 16014KT 25/19 A299 RMK A01 T02480185  RH  068%=      5-min Rain = 0
KWE1 160122Z 16014KT 25/19 A2989 RMK A01 T02470185  RH  068%=      5-min Rain = 0
KWE1 160123Z 16014KT 25/19 A2989 RMK A01 T02470186  RH  069%=      5-min Rain = 0
KWE1 160124Z 15014KT 25/19 A2989 RMK A01 T02470186  RH  069%=      5-min Rain = 0
KWE1 160125Z 14013KT 25/19 A2989 RMK A01 T02470187  RH  069%=      5-min Rain = 0
KWE1 160126Z 14013KT 25/19 A2988 RMK A01 T02470186  RH  069%=      5-min Rain = 0
KWE1 160127Z 14014KT 25/19 A2988 RMK A01 T02470185  RH  068%=      5-min Rain = 0
KWE1 160128Z 14014KT 25/19 A2988 RMK A01 T02480185  RH  068%=      5-min Rain = 0
KWE1 160129Z 15015KT 25/18 A2988 RMK A01 T02490182  RH  066%=      5-min Rain = 0
KWE1 160130Z 15014KT 25/18 A2989 RMK A01 T02510183  RH  066%=      5-min Rain = 0
KWE1 160131Z 17013KT 25/18 A2989 RMK A01 T02520183  RH  066%=      5-min Rain = 0
KWE1 160132Z 17014KT 25/18 A299 RMK A01 T02520184  RH  066%=      5-min Rain = 0
KWE1 160133Z 16017KT 25/18 A299 RMK A01 T02520184  RH  066%=      5-min Rain = 0
KWE1 160134Z 16017KT 25/18 A299 RMK A01 T02520183  RH  065%=      5-min Rain = 0
KWE1 160135Z 15020G25KT 25/18 A299 RMK A01 T02530181  RH  064%=      5-min Rain = 0
KWE1 160136Z 16021KT 25/18 A2991 RMK A01 T02520181  RH  065%=      5-min Rain = 0
KWE1 160137Z 17025G30KT 25/18 A2991 RMK A01 T02500183  RH  066%=      5-min Rain = 0
KWE1 160138Z 17025G31KT 25/18 A2992 RMK A01 T02450179  RH  067%=      5-min Rain = 0
KWE1 160139Z 17023G28KT 24/18 A2991 RMK A01 T02390178  RH  068%=      5-min Rain = 0
KWE1 160140Z 18028G34KT 24/18 A2992 RMK A01 T02350178  RH  070%=      5-min Rain = 0
KWE1 160141Z 18025G30KT 23/18 A2991 RMK A01 T02300180  RH  073%=      5-min Rain = 0
KWE1 160142Z 18021G27KT 23/18 A2991 RMK A01 T02260182  RH  076%=      5-min Rain = 0
KWE1 160143Z 18027KT 22/18 A299 RMK A01 T02230181  RH  077%=      5-min Rain = 0
KWE1 160144Z 17029KT 22/18 A2989 RMK A01 T02230177  RH  075%=      5-min Rain = 0
KWE1 160145Z 17024G30KT 23/17 A2989 RMK A01 T02250173  RH  072%=      5-min Rain = 0
KWE1 160146Z 17027G32KT 23/17 A2989 RMK A01 T02270165  RH  068%=      5-min Rain = 0
KWE1 160147Z 16023KT 23/17 A2989 RMK A01 T02300173  RH  070%=      5-min Rain = 0
KWE1 160148Z 16024G31KT 23/17 A2989 RMK A01 T02280171  RH  070%=      5-min Rain = 0
KWE1 160149Z 16022G27KT 23/17 A2989 RMK A01 T02270167  RH  069%=      5-min Rain = 0
KWE1 160150Z 17018G23KT 23/16 A2989 RMK A01 T02270163  RH  067%=      5-min Rain = 0
KWE1 160151Z 17018KT 23/16 A2989 RMK A01 T02270160  RH  066%=      5-min Rain = 0
KWE1 160152Z 17016KT 23/16 A2989 RMK A01 T02290159  RH  065%=      5-min Rain = 0
KWE1 160153Z 16016KT 23/16 A2989 RMK A01 T02310157  RH  063%=      5-min Rain = 0
KWE1 160154Z 16017KT 23/16 A299 RMK A01 T02320156  RH  062%=      5-min Rain = 0
KWE1 160155Z 16017KT 23/16 A299 RMK A01 T02330155  RH  062%=      5-min Rain = 0
KWE1 160156Z 16014KT 23/16 A299 RMK A01 T02330156  RH  062%=      5-min Rain = 0
KWE1 160157Z 16013KT 23/16 A299 RMK A01 T02320157  RH  062%=      5-min Rain = 0
KWE1 160158Z 15012KT 23/16 A299 RMK A01 T02320158  RH  063%=      5-min Rain = 0
KWE1 160159Z 15011KT 23/16 A299 RMK A01 T02310159  RH  064%=      5-min Rain = 0
KWE1 160200Z 16012KT 23/16 A299 RMK A01 T02310159  RH  064%=      5-min Rain = 0
KWE1 160201Z 15013KT 23/16 A299 RMK A01 T02310157  RH  063%=      5-min Rain = 0
KWE1 160202Z 16012KT 23/16 A2989 RMK A01 T02310157  RH  063%=      5-min Rain = 0
KWE1 160203Z 16012KT 23/16 A2989 RMK A01 T02310157  RH  063%=      5-min Rain = 0
KWE1 160204Z 16013KT 23/16 A2989 RMK A01 T02310156  RH  063%=      5-min Rain = 0
KWE1 160205Z 18010KT 23/16 A2989 RMK A01 T02310155  RH  062%=      5-min Rain = 0
KWE1 160206Z 17011KT 23/16 A2989 RMK A01 T02310158  RH  063%=      5-min Rain = 0
KWE1 160207Z 17011KT 23/16 A2989 RMK A01 T02300157  RH  063%=      5-min Rain = 0
KWE1 160208Z 18010KT 23/16 A2989 RMK A01 T02300158  RH  064%=      5-min Rain = 0
KWE1 160209Z 19012KT 23/16 A2989 RMK A01 T02290159  RH  065%=      5-min Rain = 0
KWE1 160210Z 20011KT 23/16 A2989 RMK A01 T02280161  RH  066%=      5-min Rain = 0
KWE1 160211Z 20011KT 23/16 A2989 RMK A01 T02270163  RH  067%=      5-min Rain = 0
KWE1 160212Z 19011KT 23/17 A2989 RMK A01 T02260165  RH  069%=      5-min Rain = 0
KWE1 160213Z 19010KT 23/17 A2989 RMK A01 T02250166  RH  069%=      5-min Rain = 0
KWE1 160214Z 18008KT 23/17 A2989 RMK A01 T02250167  RH  070%=      5-min Rain = 0
KWE1 160215Z 17007KT 23/17 A299 RMK A01 T02250167  RH  070%=      5-min Rain = 0
KWE1 160216Z 13005KT 22/17 A299 RMK A01 T02240166  RH  069%=      5-min Rain = 0
KWE1 160217Z 06006KT 23/17 A2991 RMK A01 T02250166  RH  069%=      5-min Rain = 0
KWE1 160218Z 04008KT 23/16 A2991 RMK A01 T02250164  RH  069%=      5-min Rain = 0
KWE1 160219Z 06008KT 23/16 A2991 RMK A01 T02250163  RH  068%=      5-min Rain = 0
KWE1 160220Z 05010G15KT 23/16 A2991 RMK A01 T02250164  RH  068%=      5-min Rain = 0
KWE1 160221Z 05012KT 23/16 A2991 RMK A01 T02250164  RH  068%=      5-min Rain = 0
KWE1 160222Z 07013KT 23/17 A2992 RMK A01 T02260166  RH  069%=      5-min Rain = 0
KWE1 160223Z 08010KT 23/16 A2992 RMK A01 T02260164  RH  068%=      5-min Rain = 0
KWE1 160224Z 08007KT 23/16 A2991 RMK A01 T02260161  RH  067%=      5-min Rain = 0
KWE1 160225Z 08008KT 23/16 A2991 RMK A01 T02270159  RH  065%=      5-min Rain = 0
KWE1 160226Z 07006KT 23/16 A299 RMK A01 T02280159  RH  065%=      5-min Rain = 0
KWE1 160227Z 08007KT 23/16 A299 RMK A01 T02280158  RH  064%=      5-min Rain = 0
KWE1 160228Z 08007KT 23/16 A299 RMK A01 T02280158  RH  065%=      5-min Rain = 0
KWE1 160229Z 10007KT 23/16 A299 RMK A01 T02280160  RH  065%=      5-min Rain = 0
KWE1 160230Z 10004KT 23/16 A299 RMK A01 T02280161  RH  066%=      5-min Rain = 0
KWE1 160231Z 09004KT 23/16 A299 RMK A01 T02270162  RH  067%=      5-min Rain = 0
KWE1 160232Z 09002KT 23/16 A2991 RMK A01 T02260162  RH  067%=      5-min Rain = 0
KWE1 160233Z 13001KT 23/16 A2991 RMK A01 T02260162  RH  067%=      5-min Rain = 0
KWE1 160234Z 15002KT 23/16 A2991 RMK A01 T02260163  RH  067%=      5-min Rain = 0
KWE1 160235Z 16004KT 23/16 A2991 RMK A01 T02250163  RH  068%=      5-min Rain = 0
KWE1 160236Z 17005KT 23/16 A2992 RMK A01 T02260163  RH  068%=      5-min Rain = 0
KWE1 160237Z 17006KT 23/16 A2992 RMK A01 T02260163  RH  068%=      5-min Rain = 0
KWE1 160238Z 18007KT 23/16 A2992 RMK A01 T02250163  RH  068%=      5-min Rain = 0
KWE1 160239Z 18008KT 23/16 A2992 RMK A01 T02250163  RH  068%=      5-min Rain = 0
KWE1 160240Z 17008KT 23/16 A2992 RMK A01 T02260163  RH  068%=      5-min Rain = 0
KWE1 160241Z 17007KT 23/16 A2992 RMK A01 T02250162  RH  067%=      5-min Rain = 0
KWE1 160242Z 17008KT 23/16 A2992 RMK A01 T02260162  RH  067%=      5-min Rain = 0
KWE1 160243Z 17008KT 23/16 A2992 RMK A01 T02250162  RH  067%=      5-min Rain = 0
KWE1 160244Z 18007KT 23/16 A2992 RMK A01 T02250163  RH  068%=      5-min Rain = 0
KWE1 160245Z 20007KT 23/16 A2992 RMK A01 T02250163  RH  068%=      5-min Rain = 0
KWE1 160246Z 21007KT 23/16 A2992 RMK A01 T02250164  RH  068%=      5-min Rain = 0
KWE1 160247Z 20006KT 23/16 A2992 RMK A01 T02250164  RH  068%=      5-min Rain = 0
KWE1 160248Z 20007KT 23/16 A2992 RMK A01 T02250163  RH  068%=      5-min Rain = 0
KWE1 160249Z 18007KT 23/16 A2992 RMK A01 T02250164  RH  068%=      5-min Rain = 0
KWE1 160250Z 18011KT 23/16 A2991 RMK A01 T02250164  RH  068%=      5-min Rain = 0
KWE1 160251Z 18013KT 23/16 A2991 RMK A01 T02250162  RH  068%=      5-min Rain = 0
KWE1 160252Z 18014KT 23/16 A2991 RMK A01 T02250162  RH  067%=      5-min Rain = 0
KWE1 160253Z 18017KT 23/16 A2991 RMK A01 T02260158  RH  066%=      5-min Rain = 0
KWE1 160254Z 19015KT 23/16 A2991 RMK A01 T02270161  RH  066%=      5-min Rain = 0
KWE1 160255Z 19015KT 23/16 A2992 RMK A01 T02270161  RH  066%=      5-min Rain = 0
KWE1 160256Z 19015KT 23/16 A2992 RMK A01 T02260159  RH  066%=      5-min Rain = 0
KWE1 160257Z 19017KT 23/16 A2993 RMK A01 T02270158  RH  065%=      5-min Rain = 0
KWE1 160258Z 18015KT 23/15 A2993 RMK A01 T02280154  RH  063%=      5-min Rain = 0
KWE1 160259Z 19011KT 23/15 A2994 RMK A01 T02310154  RH  062%=      5-min Rain = 0
KWE1 160300Z 20007KT 23/16 A2994 RMK A01 T02310155  RH  062%=      5-min Rain = 0
KWE1 160301Z 24003KT 23/16 A2994 RMK A01 T02310156  RH  063%=      5-min Rain = 0
KWE1 160302Z 28003KT 23/16 A2995 RMK A01 T02310157  RH  063%=      5-min Rain = 0
KWE1 160303Z 32003KT 23/16 A2995 RMK A01 T02300156  RH  063%=      5-min Rain = 0
KWE1 160304Z 34005KT 23/15 A2994 RMK A01 T02300153  RH  062%=      5-min Rain = 0
KWE1 160305Z 02005KT 23/15 A2994 RMK A01 T02310152  RH  061%=      5-min Rain = 0
KWE1 160306Z 02005KT 23/16 A2994 RMK A01 T02310155  RH  062%=      5-min Rain = 0
KWE1 160307Z 03004KT 23/16 A2995 RMK A01 T02310155  RH  062%=      5-min Rain = 0
KWE1 160308Z 07002KT 23/16 A2995 RMK A01 T02300155  RH  062%=      5-min Rain = 0
KWE1 160309Z 21002KT 23/15 A2995 RMK A01 T02290154  RH  062%=      5-min Rain = 0
KWE1 160310Z 21005KT 23/15 A2995 RMK A01 T02300150  RH  061%=      5-min Rain = 0
KWE1 160311Z 19006KT 23/15 A2994 RMK A01 T02320150  RH  060%=      5-min Rain = 0
KWE1 160312Z 19006KT 23/15 A2994 RMK A01 T02330152  RH  060%=      5-min Rain = 0
KWE1 160313Z 19006KT 23/15 A2995 RMK A01 T02330151  RH  060%=      5-min Rain = 0
KWE1 160314Z 18005KT 23/15 A2995 RMK A01 T02330150  RH  059%=      5-min Rain = 0
KWE1 160315Z 19001KT 23/15 A2996 RMK A01 T02340149  RH  059%=      5-min Rain = 0
KWE1 160316Z 02004KT 23/15 A2996 RMK A01 T02340150  RH  059%=      5-min Rain = 0
KWE1 160317Z 01007KT 23/15 A2996 RMK A01 T02340151  RH  059%=      5-min Rain = 0
KWE1 160318Z 00009KT 23/15 A2996 RMK A01 T02340153  RH  060%=      5-min Rain = 0
KWE1 160319Z 36007KT 23/15 A2996 RMK A01 T02340151  RH  060%=      5-min Rain = 0
KWE1 160320Z 35010KT 23/15 A2996 RMK A01 T02340149  RH  059%=      5-min Rain = 0
KWE1 160321Z 00008KT 24/15 A2997 RMK A01 T02360147  RH  058%=      5-min Rain = 0
KWE1 160322Z 01004KT 24/15 A2997 RMK A01 T02380146  RH  056%=      5-min Rain = 0
KWE1 160323Z 06002KT 24/15 A2997 RMK A01 T02400147  RH  056%=      5-min Rain = 0
KWE1 160324Z 11003KT 24/15 A2998 RMK A01 T02410149  RH  056%=      5-min Rain = 0
KWE1 160325Z 14006G11KT 24/15 A2998 RMK A01 T02400147  RH  056%=      5-min Rain = 0
KWE1 160326Z 17007KT 24/14 A2997 RMK A01 T02430139  RH  052%=      5-min Rain = 0
KWE1 160327Z 18008KT 25/14 A2997 RMK A01 T02490138  RH  050%=      5-min Rain = 0
KWE1 160328Z 16011KT 25/14 A2997 RMK A01 T02530139  RH  049%=      5-min Rain = 0
KWE1 160329Z 18014KT 26/14 A2996 RMK A01 T02550138  RH  048%=      5-min Rain = 0
KWE1 160330Z 15013KT 26/14 A2996 RMK A01 T02550138  RH  048%=      5-min Rain = 0
KWE1 160331Z 14014KT 26/14 A2997 RMK A01 T02560138  RH  048%=      5-min Rain = 0
KWE1 160332Z 11007G13KT 26/14 A2997 RMK A01 T02550141  RH  049%=      5-min Rain = 0
KWE1 160333Z 11008KT 25/14 A2997 RMK A01 T02530141  RH  050%=      5-min Rain = 0
KWE1 160334Z 11009KT 25/14 A2997 RMK A01 T02520142  RH  051%=      5-min Rain = 0
KWE1 160335Z 10010KT 25/15 A2997 RMK A01 T02500145  RH  052%=      5-min Rain = 0
KWE1 160336Z 10008KT 25/15 A2996 RMK A01 T02470146  RH  053%=      5-min Rain = 0
KWE1 160337Z 11008KT 25/15 A2996 RMK A01 T02460148  RH  054%=      5-min Rain = 0
KWE1 160338Z 12006KT 24/15 A2996 RMK A01 T02440148  RH  055%=      5-min Rain = 0
KWE1 160339Z 12006KT 24/15 A2996 RMK A01 T02430148  RH  055%=      5-min Rain = 0
KWE1 160340Z 12006KT 24/15 A2996 RMK A01 T02430149  RH  056%=      5-min Rain = 0
KWE1 160341Z 11004KT 24/15 A2996 RMK A01 T02410152  RH  057%=      5-min Rain = 0
KWE1 160342Z 14004KT 24/15 A2996 RMK A01 T02400153  RH  058%=      5-min Rain = 0
KWE1 160343Z 13004KT 24/15 A2996 RMK A01 T02380153  RH  059%=      5-min Rain = 0
KWE1 160344Z 12005KT 24/15 A2997 RMK A01 T02370153  RH  059%=      5-min Rain = 0
KWE1 160345Z 15005KT 24/16 A2997 RMK A01 T02370155  RH  060%=      5-min Rain = 0
KWE1 160346Z 17006KT 24/16 A2997 RMK A01 T02360155  RH  061%=      5-min Rain = 0
KWE1 160347Z 16007KT 24/16 A2997 RMK A01 T02350155  RH  061%=      5-min Rain = 0
KWE1 160348Z 15008KT 23/15 A2996 RMK A01 T02340153  RH  060%=      5-min Rain = 0
KWE1 160349Z 14009KT 23/15 A2996 RMK A01 T02340153  RH  060%=      5-min Rain = 0
KWE1 160350Z 15010KT 24/15 A2995 RMK A01 T02350153  RH  060%=      5-min Rain = 0
KWE1 160351Z 15011KT 23/15 A2995 RMK A01 T02340154  RH  061%=      5-min Rain = 0
KWE1 160352Z 15010KT 23/16 A2994 RMK A01 T02340155  RH  061%=      5-min Rain = 0
KWE1 160353Z 16011KT 23/16 A2994 RMK A01 T02330155  RH  062%=      5-min Rain = 0
KWE1 160354Z 16011KT 23/15 A2994 RMK A01 T02320154  RH  062%=      5-min Rain = 0
KWE1 160355Z 16013KT 23/15 A2994 RMK A01 T02320153  RH  061%=      5-min Rain = 0
KWE1 160356Z 15012KT 23/15 A2994 RMK A01 T02320152  RH  061%=      5-min Rain = 0
KWE1 160357Z 16011KT 23/15 A2994 RMK A01 T02330152  RH  060%=      5-min Rain = 0
KWE1 160358Z 16012KT 23/15 A2993 RMK A01 T02340152  RH  060%=      5-min Rain = 0
KWE1 160359Z 16011KT 23/15 A2993 RMK A01 T02340152  RH  060%=      5-min Rain = 0
KWE1 160400Z 16012KT 23/15 A2994 RMK A01 T02340151  RH  060%=      5-min Rain = 0
KWE1 160401Z 16012KT 24/15 A2994 RMK A01 T02350150  RH  059%=      5-min Rain = 0
KWE1 160402Z 16011KT 24/15 A2994 RMK A01 T02360151  RH  059%=      5-min Rain = 0
KWE1 160403Z 16011KT 24/15 A2994 RMK A01 T02360151  RH  059%=      5-min Rain = 0
KWE1 160404Z 16011KT 24/15 A2994 RMK A01 T02350152  RH  060%=      5-min Rain = 0
KWE1 160405Z 17010KT 24/15 A2994 RMK A01 T02350153  RH  060%=      5-min Rain = 0
KWE1 160406Z 17009KT 23/15 A2995 RMK A01 T02340153  RH  061%=      5-min Rain = 0
KWE1 160407Z 17009KT 23/15 A2995 RMK A01 T02320153  RH  061%=      5-min Rain = 0
KWE1 160408Z 18009KT 23/15 A2995 RMK A01 T02320153  RH  061%=      5-min Rain = 0
KWE1 160409Z 18009KT 23/15 A2995 RMK A01 T02320152  RH  061%=      5-min Rain = 0
KWE1 160410Z 19009KT 23/15 A2995 RMK A01 T02320152  RH  061%=      5-min Rain = 0
KWE1 160411Z 19009KT 23/15 A2995 RMK A01 T02320154  RH  061%=      5-min Rain = 0
KWE1 160412Z 19008KT 23/16 A2995 RMK A01 T02310155  RH  062%=      5-min Rain = 0
KWE1 160413Z 18008KT 23/16 A2995 RMK A01 T02300155  RH  063%=      5-min Rain = 0
KWE1 160414Z 18009KT 23/16 A2995 RMK A01 T02280155  RH  063%=      5-min Rain = 0
KWE1 160415Z 19009KT 23/15 A2995 RMK A01 T02280153  RH  063%=      5-min Rain = 0
KWE1 160416Z 20010KT 23/15 A2996 RMK A01 T02290153  RH  062%=      5-min Rain = 0
KWE1 160417Z 20012KT 23/15 A2996 RMK A01 T02300151  RH  061%=      5-min Rain = 0
KWE1 160418Z 20011KT 23/15 A2996 RMK A01 T02330150  RH  060%=      5-min Rain = 0
KWE1 160419Z 20011KT 24/15 A2996 RMK A01 T02350151  RH  059%=      5-min Rain = 0
KWE1 160420Z 21010KT 24/15 A2997 RMK A01 T02350151  RH  059%=      5-min Rain = 0
KWE1 160421Z 22010KT 24/15 A2997 RMK A01 T02360151  RH  059%=      5-min Rain = 0
KWE1 160422Z 23009KT 24/15 A2998 RMK A01 T02350151  RH  059%=      5-min Rain = 0
KWE1 160423Z 23008KT 24/15 A2998 RMK A01 T02350152  RH  059%=      5-min Rain = 0
KWE1 160424Z 23008KT 24/15 A2998 RMK A01 T02360153  RH  060%=      5-min Rain = 0
KWE1 160425Z 23007KT 24/15 A2999 RMK A01 T02350153  RH  060%=      5-min Rain = 0
KWE1 160426Z 23006KT 24/15 A2999 RMK A01 T02350154  RH  060%=      5-min Rain = 0
KWE1 160427Z 25004KT 23/15 A30 RMK A01 T02340154  RH  060%=      5-min Rain = 0
KWE1 160428Z 26006KT 23/15 A30 RMK A01 T02340154  RH  061%=      5-min Rain = 0
KWE1 160429Z 26006KT 23/15 A30 RMK A01 T02330154  RH  061%=      5-min Rain = 0
KWE1 160430Z 26007KT 23/16 A3001 RMK A01 T02330155  RH  062%=      5-min Rain = 0
KWE1 160431Z 28006KT 23/16 A3001 RMK A01 T02320156  RH  062%=      5-min Rain = 0
KWE1 160432Z 30006KT 23/16 A3001 RMK A01 T02320156  RH  062%=      5-min Rain = 0
KWE1 160433Z 30006KT 23/16 A3001 RMK A01 T02310156  RH  063%=      5-min Rain = 0
KWE1 160434Z 32004KT 23/16 A3002 RMK A01 T02310156  RH  063%=      5-min Rain = 0
KWE1 160435Z 33005KT 23/16 A3002 RMK A01 T02310156  RH  063%=      5-min Rain = 0
KWE1 160436Z 33006KT 23/16 A3003 RMK A01 T02310156  RH  063%=      5-min Rain = 0
KWE1 160437Z 34008KT 23/16 A3004 RMK A01 T02310156  RH  063%=      5-min Rain = 0
KWE1 160438Z 33009KT 23/16 A3004 RMK A01 T02300156  RH  063%=      5-min Rain = 0
KWE1 160439Z 33008KT 23/16 A3005 RMK A01 T02300156  RH  063%=      5-min Rain = 0
KWE1 160440Z 33011KT 23/16 A3005 RMK A01 T02300156  RH  063%=      5-min Rain = 0
KWE1 160441Z 32011KT 23/16 A3005 RMK A01 T02300156  RH  063%=      5-min Rain = 0
KWE1 160442Z 33013KT 23/16 A3005 RMK A01 T02300157  RH  063%=      5-min Rain = 0
KWE1 160443Z 33014KT 23/16 A3005 RMK A01 T02300157  RH  063%=      5-min Rain = 0
KWE1 160444Z 33013KT 23/16 A3005 RMK A01 T02310157  RH  063%=      5-min Rain = 0
KWE1 160445Z 33013KT 23/16 A3005 RMK A01 T02310158  RH  063%=      5-min Rain = 0
KWE1 160446Z 34013KT 23/16 A3005 RMK A01 T02310161  RH  065%=      5-min Rain = 0
KWE1 160447Z 33011KT 23/16 A3005 RMK A01 T02300160  RH  065%=      5-min Rain = 0
KWE1 160448Z 32012G19KT 23/16 A3006 RMK A01 T02300162  RH  065%=      5-min Rain = 0
KWE1 160449Z 32017KT 23/16 A3006 RMK A01 T02290158  RH  064%=      5-min Rain = 0
KWE1 160450Z 31018KT 23/16 A3006 RMK A01 T02290159  RH  065%=      5-min Rain = 0
KWE1 160451Z 31016KT 23/16 A3006 RMK A01 T02290161  RH  065%=      5-min Rain = 0
KWE1 160452Z 31019KT 23/16 A3006 RMK A01 T02290161  RH  065%=      5-min Rain = 0
KWE1 160453Z 31018KT 23/16 A3006 RMK A01 T02290158  RH  064%=      5-min Rain = 0
KWE1 160454Z 31017KT 23/16 A3006 RMK A01 T02280159  RH  065%=      5-min Rain = 0
KWE1 160455Z 31018KT 23/16 A3006 RMK A01 T02270160  RH  066%=      5-min Rain = 0
KWE1 160456Z 32020G25KT 23/16 A3006 RMK A01 T02250160  RH  067%=      5-min Rain = 0
KWE1 160457Z 32017G25KT 22/16 A3006 RMK A01 T02230159  RH  067%=      5-min Rain = 0
KWE1 160458Z 32016G21KT 22/16 A3007 RMK A01 T02190156  RH  067%=      5-min Rain = 0
KWE1 160459Z 32019G27KT 22/15 A3007 RMK A01 T02160154  RH  068%=      5-min Rain = 0

Page generated in 0.0324 seconds.